<?xml version="1.0" encoding="UTF-8" standalone="no" ?>
<gpx xmlns="http://www.topografix.com/GPX/1/1" xmlns:xsi="http://www.w3.org/2001/XMLSchema-instance" xsi:schemaLocation="http://www.topografix.com/GPX/1/1 http://www.topografix.com/GPX/1/1/gpx.xsd" version="1.1" creator="VisuGPX - https://www.visugpx.com">
  <metadata>
    <name>08-JUIN-21 13:50:05</name>
    <desc><![CDATA[belle ballade très beaux paysages avec cerise sur le gateau un temps magnifique]]></desc>
  </metadata>
  <trk>
    <name><![CDATA[08-JUIN-21 13:50:05]]></name>
    <trkseg>
      <trkpt lat="49.21428" lon="1.78396">
        <ele>199.61</ele>
        <time>2021-06-08T07:29:26Z</time>
      </trkpt>
      <trkpt lat="49.21429" lon="1.78394">
        <ele>195.77</ele>
        <time>2021-06-08T07:29:34Z</time>
      </trkpt>
      <trkpt lat="49.21428" lon="1.78394">
        <ele>204.42</ele>
        <time>2021-06-08T07:29:35Z</time>
      </trkpt>
      <trkpt lat="49.2143" lon="1.78394">
        <ele>199.61</ele>
        <time>2021-06-08T07:29:36Z</time>
      </trkpt>
      <trkpt lat="49.21427" lon="1.784">
        <ele>199.13</ele>
        <time>2021-06-08T07:29:56Z</time>
      </trkpt>
      <trkpt lat="49.21427" lon="1.784">
        <ele>199.61</ele>
        <time>2021-06-08T07:30:15Z</time>
      </trkpt>
      <trkpt lat="49.21428" lon="1.78406">
        <ele>199.61</ele>
        <time>2021-06-08T07:30:36Z</time>
      </trkpt>
      <trkpt lat="49.21422" lon="1.78404">
        <ele>199.13</ele>
        <time>2021-06-08T07:30:55Z</time>
      </trkpt>
      <trkpt lat="49.21425" lon="1.78407">
        <ele>199.13</ele>
        <time>2021-06-08T07:31:07Z</time>
      </trkpt>
      <trkpt lat="49.21422" lon="1.78403">
        <ele>199.61</ele>
        <time>2021-06-08T07:31:38Z</time>
      </trkpt>
      <trkpt lat="49.21426" lon="1.78405">
        <ele>199.13</ele>
        <time>2021-06-08T07:32:01Z</time>
      </trkpt>
      <trkpt lat="49.21423" lon="1.78407">
        <ele>198.65</ele>
        <time>2021-06-08T07:32:23Z</time>
      </trkpt>
      <trkpt lat="49.21419" lon="1.7841">
        <ele>198.65</ele>
        <time>2021-06-08T07:32:44Z</time>
      </trkpt>
      <trkpt lat="49.21422" lon="1.78403">
        <ele>202.01</ele>
        <time>2021-06-08T07:32:54Z</time>
      </trkpt>
      <trkpt lat="49.21422" lon="1.78402">
        <ele>198.17</ele>
        <time>2021-06-08T07:32:55Z</time>
      </trkpt>
      <trkpt lat="49.21419" lon="1.78403">
        <ele>199.13</ele>
        <time>2021-06-08T07:33:16Z</time>
      </trkpt>
      <trkpt lat="49.21424" lon="1.78391">
        <ele>199.13</ele>
        <time>2021-06-08T07:33:31Z</time>
      </trkpt>
      <trkpt lat="49.21435" lon="1.78368">
        <ele>200.09</ele>
        <time>2021-06-08T07:33:51Z</time>
      </trkpt>
      <trkpt lat="49.21446" lon="1.78343">
        <ele>200.57</ele>
        <time>2021-06-08T07:34:10Z</time>
      </trkpt>
      <trkpt lat="49.21458" lon="1.78318">
        <ele>201.05</ele>
        <time>2021-06-08T07:34:30Z</time>
      </trkpt>
      <trkpt lat="49.21464" lon="1.783">
        <ele>200.09</ele>
        <time>2021-06-08T07:34:44Z</time>
      </trkpt>
      <trkpt lat="49.21471" lon="1.78278">
        <ele>199.61</ele>
        <time>2021-06-08T07:35:01Z</time>
      </trkpt>
      <trkpt lat="49.21471" lon="1.78276">
        <ele>199.61</ele>
        <time>2021-06-08T07:35:03Z</time>
      </trkpt>
      <trkpt lat="49.21473" lon="1.78272">
        <ele>199.13</ele>
        <time>2021-06-08T07:35:06Z</time>
      </trkpt>
      <trkpt lat="49.21482" lon="1.7824">
        <ele>199.13</ele>
        <time>2021-06-08T07:35:28Z</time>
      </trkpt>
      <trkpt lat="49.21487" lon="1.78232">
        <ele>198.65</ele>
        <time>2021-06-08T07:35:36Z</time>
      </trkpt>
      <trkpt lat="49.21492" lon="1.78226">
        <ele>198.17</ele>
        <time>2021-06-08T07:35:41Z</time>
      </trkpt>
      <trkpt lat="49.21508" lon="1.78196">
        <ele>198.65</ele>
        <time>2021-06-08T07:36:04Z</time>
      </trkpt>
      <trkpt lat="49.21512" lon="1.78186">
        <ele>199.13</ele>
        <time>2021-06-08T07:36:11Z</time>
      </trkpt>
      <trkpt lat="49.21513" lon="1.78182">
        <ele>198.65</ele>
        <time>2021-06-08T07:36:14Z</time>
      </trkpt>
      <trkpt lat="49.21517" lon="1.78173">
        <ele>198.65</ele>
        <time>2021-06-08T07:36:20Z</time>
      </trkpt>
      <trkpt lat="49.21516" lon="1.78169">
        <ele>198.65</ele>
        <time>2021-06-08T07:36:38Z</time>
      </trkpt>
      <trkpt lat="49.21515" lon="1.78167">
        <ele>198.17</ele>
        <time>2021-06-08T07:36:59Z</time>
      </trkpt>
      <trkpt lat="49.21515" lon="1.78151">
        <ele>196.73</ele>
        <time>2021-06-08T07:37:07Z</time>
      </trkpt>
      <trkpt lat="49.21525" lon="1.78114">
        <ele>194.8</ele>
        <time>2021-06-08T07:37:25Z</time>
      </trkpt>
      <trkpt lat="49.21539" lon="1.78074">
        <ele>194.8</ele>
        <time>2021-06-08T07:37:47Z</time>
      </trkpt>
      <trkpt lat="49.21549" lon="1.78045">
        <ele>193.84</ele>
        <time>2021-06-08T07:38:02Z</time>
      </trkpt>
      <trkpt lat="49.21552" lon="1.78033">
        <ele>193.84</ele>
        <time>2021-06-08T07:38:16Z</time>
      </trkpt>
      <trkpt lat="49.21566" lon="1.77997">
        <ele>192.88</ele>
        <time>2021-06-08T07:38:36Z</time>
      </trkpt>
      <trkpt lat="49.21579" lon="1.77958">
        <ele>192.88</ele>
        <time>2021-06-08T07:38:57Z</time>
      </trkpt>
      <trkpt lat="49.21592" lon="1.77927">
        <ele>193.36</ele>
        <time>2021-06-08T07:39:15Z</time>
      </trkpt>
      <trkpt lat="49.21606" lon="1.77887">
        <ele>193.36</ele>
        <time>2021-06-08T07:39:37Z</time>
      </trkpt>
      <trkpt lat="49.21617" lon="1.77852">
        <ele>193.84</ele>
        <time>2021-06-08T07:39:57Z</time>
      </trkpt>
      <trkpt lat="49.21626" lon="1.77822">
        <ele>193.36</ele>
        <time>2021-06-08T07:40:15Z</time>
      </trkpt>
      <trkpt lat="49.21636" lon="1.77794">
        <ele>193.84</ele>
        <time>2021-06-08T07:40:33Z</time>
      </trkpt>
      <trkpt lat="49.21642" lon="1.77769">
        <ele>193.84</ele>
        <time>2021-06-08T07:40:50Z</time>
      </trkpt>
      <trkpt lat="49.21644" lon="1.77736">
        <ele>193.36</ele>
        <time>2021-06-08T07:41:09Z</time>
      </trkpt>
      <trkpt lat="49.21646" lon="1.77714">
        <ele>191.44</ele>
        <time>2021-06-08T07:41:24Z</time>
      </trkpt>
      <trkpt lat="49.21647" lon="1.77689">
        <ele>190.96</ele>
        <time>2021-06-08T07:41:41Z</time>
      </trkpt>
      <trkpt lat="49.2165" lon="1.77668">
        <ele>190.48</ele>
        <time>2021-06-08T07:41:58Z</time>
      </trkpt>
      <trkpt lat="49.21651" lon="1.77643">
        <ele>190</ele>
        <time>2021-06-08T07:42:15Z</time>
      </trkpt>
      <trkpt lat="49.21649" lon="1.77615">
        <ele>189.52</ele>
        <time>2021-06-08T07:42:32Z</time>
      </trkpt>
      <trkpt lat="49.21649" lon="1.77591">
        <ele>188.56</ele>
        <time>2021-06-08T07:42:47Z</time>
      </trkpt>
      <trkpt lat="49.21654" lon="1.77573">
        <ele>186.63</ele>
        <time>2021-06-08T07:43:02Z</time>
      </trkpt>
      <trkpt lat="49.21654" lon="1.77557">
        <ele>185.19</ele>
        <time>2021-06-08T07:43:17Z</time>
      </trkpt>
      <trkpt lat="49.21655" lon="1.77547">
        <ele>184.23</ele>
        <time>2021-06-08T07:43:30Z</time>
      </trkpt>
      <trkpt lat="49.21664" lon="1.77518">
        <ele>182.79</ele>
        <time>2021-06-08T07:43:46Z</time>
      </trkpt>
      <trkpt lat="49.21667" lon="1.775">
        <ele>181.83</ele>
        <time>2021-06-08T07:44:00Z</time>
      </trkpt>
      <trkpt lat="49.21672" lon="1.77483">
        <ele>180.38</ele>
        <time>2021-06-08T07:44:13Z</time>
      </trkpt>
      <trkpt lat="49.21674" lon="1.77462">
        <ele>178.94</ele>
        <time>2021-06-08T07:44:28Z</time>
      </trkpt>
      <trkpt lat="49.21681" lon="1.77414">
        <ele>177.98</ele>
        <time>2021-06-08T07:44:44Z</time>
      </trkpt>
      <trkpt lat="49.21684" lon="1.77387">
        <ele>176.54</ele>
        <time>2021-06-08T07:45:00Z</time>
      </trkpt>
      <trkpt lat="49.21688" lon="1.77376">
        <ele>175.1</ele>
        <time>2021-06-08T07:45:15Z</time>
      </trkpt>
      <trkpt lat="49.21695" lon="1.77346">
        <ele>173.66</ele>
        <time>2021-06-08T07:45:32Z</time>
      </trkpt>
      <trkpt lat="49.21696" lon="1.77324">
        <ele>172.69</ele>
        <time>2021-06-08T07:45:48Z</time>
      </trkpt>
      <trkpt lat="49.21691" lon="1.77298">
        <ele>171.25</ele>
        <time>2021-06-08T07:46:04Z</time>
      </trkpt>
      <trkpt lat="49.21688" lon="1.7728">
        <ele>169.81</ele>
        <time>2021-06-08T07:46:22Z</time>
      </trkpt>
      <trkpt lat="49.21689" lon="1.77269">
        <ele>168.85</ele>
        <time>2021-06-08T07:46:37Z</time>
      </trkpt>
      <trkpt lat="49.21689" lon="1.77253">
        <ele>168.37</ele>
        <time>2021-06-08T07:46:48Z</time>
      </trkpt>
      <trkpt lat="49.21687" lon="1.77238">
        <ele>167.41</ele>
        <time>2021-06-08T07:46:58Z</time>
      </trkpt>
      <trkpt lat="49.21688" lon="1.77201">
        <ele>165</ele>
        <time>2021-06-08T07:47:15Z</time>
      </trkpt>
      <trkpt lat="49.21687" lon="1.77173">
        <ele>163.56</ele>
        <time>2021-06-08T07:47:26Z</time>
      </trkpt>
      <trkpt lat="49.21688" lon="1.77161">
        <ele>163.56</ele>
        <time>2021-06-08T07:47:36Z</time>
      </trkpt>
      <trkpt lat="49.21685" lon="1.77135">
        <ele>163.08</ele>
        <time>2021-06-08T07:47:53Z</time>
      </trkpt>
      <trkpt lat="49.21681" lon="1.77125">
        <ele>162.6</ele>
        <time>2021-06-08T07:48:08Z</time>
      </trkpt>
      <trkpt lat="49.21677" lon="1.77094">
        <ele>161.16</ele>
        <time>2021-06-08T07:48:25Z</time>
      </trkpt>
      <trkpt lat="49.21676" lon="1.77088">
        <ele>160.68</ele>
        <time>2021-06-08T07:48:43Z</time>
      </trkpt>
      <trkpt lat="49.21675" lon="1.77071">
        <ele>160.2</ele>
        <time>2021-06-08T07:49:03Z</time>
      </trkpt>
      <trkpt lat="49.2167" lon="1.77026">
        <ele>157.79</ele>
        <time>2021-06-08T07:49:26Z</time>
      </trkpt>
      <trkpt lat="49.21667" lon="1.76991">
        <ele>155.87</ele>
        <time>2021-06-08T07:49:44Z</time>
      </trkpt>
      <trkpt lat="49.21663" lon="1.76951">
        <ele>153.95</ele>
        <time>2021-06-08T07:50:05Z</time>
      </trkpt>
      <trkpt lat="49.2166" lon="1.76919">
        <ele>150.58</ele>
        <time>2021-06-08T07:50:23Z</time>
      </trkpt>
      <trkpt lat="49.21657" lon="1.76879">
        <ele>149.14</ele>
        <time>2021-06-08T07:50:45Z</time>
      </trkpt>
      <trkpt lat="49.21656" lon="1.76855">
        <ele>148.66</ele>
        <time>2021-06-08T07:51:02Z</time>
      </trkpt>
      <trkpt lat="49.21655" lon="1.76846">
        <ele>148.18</ele>
        <time>2021-06-08T07:51:21Z</time>
      </trkpt>
      <trkpt lat="49.21652" lon="1.76807">
        <ele>147.22</ele>
        <time>2021-06-08T07:51:41Z</time>
      </trkpt>
      <trkpt lat="49.21651" lon="1.76769">
        <ele>144.82</ele>
        <time>2021-06-08T07:52:00Z</time>
      </trkpt>
      <trkpt lat="49.2165" lon="1.76732">
        <ele>143.37</ele>
        <time>2021-06-08T07:52:19Z</time>
      </trkpt>
      <trkpt lat="49.21649" lon="1.76703">
        <ele>142.89</ele>
        <time>2021-06-08T07:52:34Z</time>
      </trkpt>
      <trkpt lat="49.21649" lon="1.76673">
        <ele>140.97</ele>
        <time>2021-06-08T07:52:52Z</time>
      </trkpt>
      <trkpt lat="49.21648" lon="1.76641">
        <ele>140.01</ele>
        <time>2021-06-08T07:53:10Z</time>
      </trkpt>
      <trkpt lat="49.21646" lon="1.76608">
        <ele>139.05</ele>
        <time>2021-06-08T07:53:28Z</time>
      </trkpt>
      <trkpt lat="49.21642" lon="1.76573">
        <ele>137.13</ele>
        <time>2021-06-08T07:53:48Z</time>
      </trkpt>
      <trkpt lat="49.21638" lon="1.76552">
        <ele>137.13</ele>
        <time>2021-06-08T07:54:04Z</time>
      </trkpt>
      <trkpt lat="49.21635" lon="1.76532">
        <ele>137.13</ele>
        <time>2021-06-08T07:54:22Z</time>
      </trkpt>
      <trkpt lat="49.21628" lon="1.76504">
        <ele>135.68</ele>
        <time>2021-06-08T07:54:37Z</time>
      </trkpt>
      <trkpt lat="49.21631" lon="1.76484">
        <ele>135.68</ele>
        <time>2021-06-08T07:54:48Z</time>
      </trkpt>
      <trkpt lat="49.21655" lon="1.76465">
        <ele>136.64</ele>
        <time>2021-06-08T07:55:10Z</time>
      </trkpt>
      <trkpt lat="49.21668" lon="1.76457">
        <ele>136.64</ele>
        <time>2021-06-08T07:55:28Z</time>
      </trkpt>
      <trkpt lat="49.2168" lon="1.7645">
        <ele>138.09</ele>
        <time>2021-06-08T07:55:43Z</time>
      </trkpt>
      <trkpt lat="49.21702" lon="1.76439">
        <ele>138.09</ele>
        <time>2021-06-08T07:56:03Z</time>
      </trkpt>
      <trkpt lat="49.21702" lon="1.76431">
        <ele>138.57</ele>
        <time>2021-06-08T07:56:09Z</time>
      </trkpt>
      <trkpt lat="49.2171" lon="1.76408">
        <ele>139.05</ele>
        <time>2021-06-08T07:56:27Z</time>
      </trkpt>
      <trkpt lat="49.21717" lon="1.76384">
        <ele>139.53</ele>
        <time>2021-06-08T07:56:45Z</time>
      </trkpt>
      <trkpt lat="49.21719" lon="1.7637">
        <ele>139.05</ele>
        <time>2021-06-08T07:56:55Z</time>
      </trkpt>
      <trkpt lat="49.2172" lon="1.76338">
        <ele>138.57</ele>
        <time>2021-06-08T07:57:16Z</time>
      </trkpt>
      <trkpt lat="49.21723" lon="1.76301">
        <ele>138.57</ele>
        <time>2021-06-08T07:57:37Z</time>
      </trkpt>
      <trkpt lat="49.21725" lon="1.76268">
        <ele>138.57</ele>
        <time>2021-06-08T07:57:57Z</time>
      </trkpt>
      <trkpt lat="49.21728" lon="1.76231">
        <ele>138.09</ele>
        <time>2021-06-08T07:58:18Z</time>
      </trkpt>
      <trkpt lat="49.2173" lon="1.76204">
        <ele>138.09</ele>
        <time>2021-06-08T07:58:36Z</time>
      </trkpt>
      <trkpt lat="49.21731" lon="1.762">
        <ele>137.61</ele>
        <time>2021-06-08T07:58:39Z</time>
      </trkpt>
      <trkpt lat="49.21734" lon="1.7617">
        <ele>138.09</ele>
        <time>2021-06-08T07:58:59Z</time>
      </trkpt>
      <trkpt lat="49.21734" lon="1.76168">
        <ele>137.61</ele>
        <time>2021-06-08T07:59:00Z</time>
      </trkpt>
      <trkpt lat="49.21736" lon="1.76133">
        <ele>137.61</ele>
        <time>2021-06-08T07:59:20Z</time>
      </trkpt>
      <trkpt lat="49.21737" lon="1.76128">
        <ele>138.09</ele>
        <time>2021-06-08T07:59:27Z</time>
      </trkpt>
      <trkpt lat="49.2174" lon="1.76114">
        <ele>138.09</ele>
        <time>2021-06-08T07:59:35Z</time>
      </trkpt>
      <trkpt lat="49.21742" lon="1.7608">
        <ele>138.09</ele>
        <time>2021-06-08T07:59:57Z</time>
      </trkpt>
      <trkpt lat="49.21743" lon="1.76062">
        <ele>137.13</ele>
        <time>2021-06-08T08:00:13Z</time>
      </trkpt>
      <trkpt lat="49.21745" lon="1.76042">
        <ele>137.61</ele>
        <time>2021-06-08T08:00:25Z</time>
      </trkpt>
      <trkpt lat="49.21745" lon="1.76028">
        <ele>137.61</ele>
        <time>2021-06-08T08:00:33Z</time>
      </trkpt>
      <trkpt lat="49.21746" lon="1.76017">
        <ele>137.13</ele>
        <time>2021-06-08T08:00:51Z</time>
      </trkpt>
      <trkpt lat="49.21748" lon="1.76016">
        <ele>136.64</ele>
        <time>2021-06-08T08:01:17Z</time>
      </trkpt>
      <trkpt lat="49.21749" lon="1.76005">
        <ele>137.13</ele>
        <time>2021-06-08T08:01:25Z</time>
      </trkpt>
      <trkpt lat="49.21753" lon="1.75963">
        <ele>136.16</ele>
        <time>2021-06-08T08:01:48Z</time>
      </trkpt>
      <trkpt lat="49.21757" lon="1.7592">
        <ele>136.64</ele>
        <time>2021-06-08T08:02:11Z</time>
      </trkpt>
      <trkpt lat="49.2176" lon="1.75882">
        <ele>136.16</ele>
        <time>2021-06-08T08:02:33Z</time>
      </trkpt>
      <trkpt lat="49.21763" lon="1.7585">
        <ele>135.68</ele>
        <time>2021-06-08T08:02:54Z</time>
      </trkpt>
      <trkpt lat="49.21766" lon="1.7582">
        <ele>135.68</ele>
        <time>2021-06-08T08:03:14Z</time>
      </trkpt>
      <trkpt lat="49.21769" lon="1.75789">
        <ele>135.68</ele>
        <time>2021-06-08T08:03:34Z</time>
      </trkpt>
      <trkpt lat="49.21772" lon="1.75761">
        <ele>135.68</ele>
        <time>2021-06-08T08:03:53Z</time>
      </trkpt>
      <trkpt lat="49.21773" lon="1.75736">
        <ele>134.72</ele>
        <time>2021-06-08T08:04:11Z</time>
      </trkpt>
      <trkpt lat="49.21776" lon="1.75703">
        <ele>134.72</ele>
        <time>2021-06-08T08:04:33Z</time>
      </trkpt>
      <trkpt lat="49.21779" lon="1.75677">
        <ele>134.72</ele>
        <time>2021-06-08T08:04:51Z</time>
      </trkpt>
      <trkpt lat="49.21781" lon="1.75649">
        <ele>134.24</ele>
        <time>2021-06-08T08:05:11Z</time>
      </trkpt>
      <trkpt lat="49.21783" lon="1.75626">
        <ele>133.76</ele>
        <time>2021-06-08T08:05:28Z</time>
      </trkpt>
      <trkpt lat="49.21785" lon="1.75602">
        <ele>132.8</ele>
        <time>2021-06-08T08:05:46Z</time>
      </trkpt>
      <trkpt lat="49.21788" lon="1.75578">
        <ele>132.32</ele>
        <time>2021-06-08T08:06:04Z</time>
      </trkpt>
      <trkpt lat="49.21791" lon="1.75549">
        <ele>131.36</ele>
        <time>2021-06-08T08:06:24Z</time>
      </trkpt>
      <trkpt lat="49.21794" lon="1.75529">
        <ele>130.88</ele>
        <time>2021-06-08T08:06:38Z</time>
      </trkpt>
      <trkpt lat="49.21795" lon="1.755">
        <ele>129.43</ele>
        <time>2021-06-08T08:06:57Z</time>
      </trkpt>
      <trkpt lat="49.21795" lon="1.75483">
        <ele>129.43</ele>
        <time>2021-06-08T08:07:08Z</time>
      </trkpt>
      <trkpt lat="49.21797" lon="1.7545">
        <ele>127.51</ele>
        <time>2021-06-08T08:07:28Z</time>
      </trkpt>
      <trkpt lat="49.21797" lon="1.75417">
        <ele>127.03</ele>
        <time>2021-06-08T08:07:48Z</time>
      </trkpt>
      <trkpt lat="49.21797" lon="1.75408">
        <ele>127.51</ele>
        <time>2021-06-08T08:07:54Z</time>
      </trkpt>
      <trkpt lat="49.21801" lon="1.75375">
        <ele>126.07</ele>
        <time>2021-06-08T08:08:14Z</time>
      </trkpt>
      <trkpt lat="49.21801" lon="1.7534">
        <ele>126.07</ele>
        <time>2021-06-08T08:08:35Z</time>
      </trkpt>
      <trkpt lat="49.21804" lon="1.75306">
        <ele>125.59</ele>
        <time>2021-06-08T08:08:56Z</time>
      </trkpt>
      <trkpt lat="49.21806" lon="1.75272">
        <ele>125.59</ele>
        <time>2021-06-08T08:09:17Z</time>
      </trkpt>
      <trkpt lat="49.21806" lon="1.75268">
        <ele>124.15</ele>
        <time>2021-06-08T08:09:20Z</time>
      </trkpt>
      <trkpt lat="49.21809" lon="1.75238">
        <ele>124.15</ele>
        <time>2021-06-08T08:09:38Z</time>
      </trkpt>
      <trkpt lat="49.21809" lon="1.752">
        <ele>123.67</ele>
        <time>2021-06-08T08:10:01Z</time>
      </trkpt>
      <trkpt lat="49.2181" lon="1.75165">
        <ele>123.19</ele>
        <time>2021-06-08T08:10:22Z</time>
      </trkpt>
      <trkpt lat="49.21811" lon="1.75137">
        <ele>122.22</ele>
        <time>2021-06-08T08:10:39Z</time>
      </trkpt>
      <trkpt lat="49.21811" lon="1.75109">
        <ele>119.34</ele>
        <time>2021-06-08T08:10:57Z</time>
      </trkpt>
      <trkpt lat="49.21809" lon="1.75082">
        <ele>117.9</ele>
        <time>2021-06-08T08:11:15Z</time>
      </trkpt>
      <trkpt lat="49.21801" lon="1.75058">
        <ele>117.42</ele>
        <time>2021-06-08T08:11:31Z</time>
      </trkpt>
      <trkpt lat="49.21794" lon="1.75039">
        <ele>116.46</ele>
        <time>2021-06-08T08:11:46Z</time>
      </trkpt>
      <trkpt lat="49.21783" lon="1.75016">
        <ele>115.01</ele>
        <time>2021-06-08T08:12:03Z</time>
      </trkpt>
      <trkpt lat="49.21782" lon="1.75008">
        <ele>114.53</ele>
        <time>2021-06-08T08:12:08Z</time>
      </trkpt>
      <trkpt lat="49.21783" lon="1.75004">
        <ele>115.5</ele>
        <time>2021-06-08T08:12:11Z</time>
      </trkpt>
      <trkpt lat="49.21801" lon="1.75002">
        <ele>116.46</ele>
        <time>2021-06-08T08:12:27Z</time>
      </trkpt>
      <trkpt lat="49.21821" lon="1.75002">
        <ele>118.38</ele>
        <time>2021-06-08T08:12:48Z</time>
      </trkpt>
      <trkpt lat="49.21821" lon="1.74998">
        <ele>117.9</ele>
        <time>2021-06-08T08:13:09Z</time>
      </trkpt>
      <trkpt lat="49.21822" lon="1.74985">
        <ele>118.86</ele>
        <time>2021-06-08T08:13:22Z</time>
      </trkpt>
      <trkpt lat="49.21821" lon="1.74971">
        <ele>118.86</ele>
        <time>2021-06-08T08:13:37Z</time>
      </trkpt>
      <trkpt lat="49.21815" lon="1.7495">
        <ele>118.86</ele>
        <time>2021-06-08T08:13:55Z</time>
      </trkpt>
      <trkpt lat="49.2181" lon="1.74939">
        <ele>119.34</ele>
        <time>2021-06-08T08:14:06Z</time>
      </trkpt>
      <trkpt lat="49.218" lon="1.74917">
        <ele>120.3</ele>
        <time>2021-06-08T08:14:24Z</time>
      </trkpt>
      <trkpt lat="49.2179" lon="1.74893">
        <ele>121.26</ele>
        <time>2021-06-08T08:14:42Z</time>
      </trkpt>
      <trkpt lat="49.21783" lon="1.74874">
        <ele>121.26</ele>
        <time>2021-06-08T08:14:56Z</time>
      </trkpt>
      <trkpt lat="49.21781" lon="1.74866">
        <ele>121.26</ele>
        <time>2021-06-08T08:15:02Z</time>
      </trkpt>
      <trkpt lat="49.21776" lon="1.74845">
        <ele>121.74</ele>
        <time>2021-06-08T08:15:15Z</time>
      </trkpt>
      <trkpt lat="49.21772" lon="1.74829">
        <ele>123.19</ele>
        <time>2021-06-08T08:15:27Z</time>
      </trkpt>
      <trkpt lat="49.21768" lon="1.748">
        <ele>123.19</ele>
        <time>2021-06-08T08:15:41Z</time>
      </trkpt>
      <trkpt lat="49.21764" lon="1.74777">
        <ele>123.67</ele>
        <time>2021-06-08T08:15:52Z</time>
      </trkpt>
      <trkpt lat="49.21762" lon="1.74773">
        <ele>123.67</ele>
        <time>2021-06-08T08:15:57Z</time>
      </trkpt>
      <trkpt lat="49.21761" lon="1.74771">
        <ele>123.67</ele>
        <time>2021-06-08T08:15:58Z</time>
      </trkpt>
      <trkpt lat="49.21761" lon="1.74768">
        <ele>123.19</ele>
        <time>2021-06-08T08:15:59Z</time>
      </trkpt>
      <trkpt lat="49.21761" lon="1.74747">
        <ele>123.67</ele>
        <time>2021-06-08T08:16:09Z</time>
      </trkpt>
      <trkpt lat="49.21757" lon="1.74727">
        <ele>124.63</ele>
        <time>2021-06-08T08:16:25Z</time>
      </trkpt>
      <trkpt lat="49.21761" lon="1.74727">
        <ele>124.15</ele>
        <time>2021-06-08T08:16:48Z</time>
      </trkpt>
      <trkpt lat="49.21763" lon="1.74726">
        <ele>124.15</ele>
        <time>2021-06-08T08:17:10Z</time>
      </trkpt>
      <trkpt lat="49.21758" lon="1.74729">
        <ele>124.63</ele>
        <time>2021-06-08T08:17:34Z</time>
      </trkpt>
      <trkpt lat="49.21757" lon="1.74725">
        <ele>124.63</ele>
        <time>2021-06-08T08:17:52Z</time>
      </trkpt>
      <trkpt lat="49.21752" lon="1.74719">
        <ele>124.63</ele>
        <time>2021-06-08T08:18:08Z</time>
      </trkpt>
      <trkpt lat="49.21751" lon="1.74712">
        <ele>125.11</ele>
        <time>2021-06-08T08:18:33Z</time>
      </trkpt>
      <trkpt lat="49.21757" lon="1.74709">
        <ele>124.63</ele>
        <time>2021-06-08T08:18:51Z</time>
      </trkpt>
      <trkpt lat="49.21754" lon="1.74691">
        <ele>125.11</ele>
        <time>2021-06-08T08:19:07Z</time>
      </trkpt>
      <trkpt lat="49.21754" lon="1.74663">
        <ele>125.59</ele>
        <time>2021-06-08T08:19:24Z</time>
      </trkpt>
      <trkpt lat="49.21754" lon="1.74634">
        <ele>126.07</ele>
        <time>2021-06-08T08:19:44Z</time>
      </trkpt>
      <trkpt lat="49.21753" lon="1.74602">
        <ele>126.07</ele>
        <time>2021-06-08T08:20:06Z</time>
      </trkpt>
      <trkpt lat="49.21752" lon="1.74576">
        <ele>126.07</ele>
        <time>2021-06-08T08:20:24Z</time>
      </trkpt>
      <trkpt lat="49.2175" lon="1.74569">
        <ele>126.07</ele>
        <time>2021-06-08T08:20:29Z</time>
      </trkpt>
      <trkpt lat="49.21749" lon="1.7457">
        <ele>125.11</ele>
        <time>2021-06-08T08:20:43Z</time>
      </trkpt>
      <trkpt lat="49.21753" lon="1.74566">
        <ele>125.11</ele>
        <time>2021-06-08T08:20:54Z</time>
      </trkpt>
      <trkpt lat="49.21754" lon="1.74564">
        <ele>126.07</ele>
        <time>2021-06-08T08:20:55Z</time>
      </trkpt>
      <trkpt lat="49.21751" lon="1.74525">
        <ele>126.55</ele>
        <time>2021-06-08T08:21:15Z</time>
      </trkpt>
      <trkpt lat="49.21749" lon="1.74491">
        <ele>126.55</ele>
        <time>2021-06-08T08:21:34Z</time>
      </trkpt>
      <trkpt lat="49.21749" lon="1.74482">
        <ele>126.55</ele>
        <time>2021-06-08T08:21:40Z</time>
      </trkpt>
      <trkpt lat="49.21748" lon="1.74456">
        <ele>127.03</ele>
        <time>2021-06-08T08:21:57Z</time>
      </trkpt>
      <trkpt lat="49.21748" lon="1.74433">
        <ele>127.03</ele>
        <time>2021-06-08T08:22:16Z</time>
      </trkpt>
      <trkpt lat="49.21749" lon="1.74434">
        <ele>127.03</ele>
        <time>2021-06-08T08:22:38Z</time>
      </trkpt>
      <trkpt lat="49.21746" lon="1.74413">
        <ele>127.03</ele>
        <time>2021-06-08T08:22:52Z</time>
      </trkpt>
      <trkpt lat="49.21745" lon="1.74388">
        <ele>127.03</ele>
        <time>2021-06-08T08:23:08Z</time>
      </trkpt>
      <trkpt lat="49.21743" lon="1.74365">
        <ele>127.51</ele>
        <time>2021-06-08T08:23:24Z</time>
      </trkpt>
      <trkpt lat="49.21742" lon="1.74336">
        <ele>128.95</ele>
        <time>2021-06-08T08:23:43Z</time>
      </trkpt>
      <trkpt lat="49.2174" lon="1.74307">
        <ele>129.43</ele>
        <time>2021-06-08T08:24:02Z</time>
      </trkpt>
      <trkpt lat="49.21738" lon="1.74278">
        <ele>130.4</ele>
        <time>2021-06-08T08:24:21Z</time>
      </trkpt>
      <trkpt lat="49.21736" lon="1.7426">
        <ele>131.36</ele>
        <time>2021-06-08T08:24:32Z</time>
      </trkpt>
      <trkpt lat="49.21735" lon="1.74258">
        <ele>131.36</ele>
        <time>2021-06-08T08:24:33Z</time>
      </trkpt>
      <trkpt lat="49.21735" lon="1.74256">
        <ele>131.36</ele>
        <time>2021-06-08T08:24:34Z</time>
      </trkpt>
      <trkpt lat="49.21735" lon="1.74255">
        <ele>131.36</ele>
        <time>2021-06-08T08:24:35Z</time>
      </trkpt>
      <trkpt lat="49.21735" lon="1.74253">
        <ele>131.36</ele>
        <time>2021-06-08T08:24:36Z</time>
      </trkpt>
      <trkpt lat="49.21734" lon="1.74251">
        <ele>131.36</ele>
        <time>2021-06-08T08:24:37Z</time>
      </trkpt>
      <trkpt lat="49.21734" lon="1.7425">
        <ele>131.84</ele>
        <time>2021-06-08T08:24:38Z</time>
      </trkpt>
      <trkpt lat="49.21731" lon="1.74226">
        <ele>132.32</ele>
        <time>2021-06-08T08:24:54Z</time>
      </trkpt>
      <trkpt lat="49.21728" lon="1.74206">
        <ele>132.8</ele>
        <time>2021-06-08T08:25:09Z</time>
      </trkpt>
      <trkpt lat="49.21725" lon="1.74184">
        <ele>134.24</ele>
        <time>2021-06-08T08:25:25Z</time>
      </trkpt>
      <trkpt lat="49.21722" lon="1.7416">
        <ele>134.72</ele>
        <time>2021-06-08T08:25:42Z</time>
      </trkpt>
      <trkpt lat="49.21721" lon="1.74155">
        <ele>134.72</ele>
        <time>2021-06-08T08:25:45Z</time>
      </trkpt>
      <trkpt lat="49.21718" lon="1.74128">
        <ele>136.16</ele>
        <time>2021-06-08T08:26:00Z</time>
      </trkpt>
      <trkpt lat="49.21715" lon="1.74102">
        <ele>136.64</ele>
        <time>2021-06-08T08:26:18Z</time>
      </trkpt>
      <trkpt lat="49.21711" lon="1.74068">
        <ele>137.13</ele>
        <time>2021-06-08T08:26:40Z</time>
      </trkpt>
      <trkpt lat="49.21708" lon="1.74045">
        <ele>137.13</ele>
        <time>2021-06-08T08:26:57Z</time>
      </trkpt>
      <trkpt lat="49.21704" lon="1.74015">
        <ele>138.57</ele>
        <time>2021-06-08T08:27:15Z</time>
      </trkpt>
      <trkpt lat="49.217" lon="1.73981">
        <ele>138.57</ele>
        <time>2021-06-08T08:27:34Z</time>
      </trkpt>
      <trkpt lat="49.21694" lon="1.73946">
        <ele>139.05</ele>
        <time>2021-06-08T08:27:53Z</time>
      </trkpt>
      <trkpt lat="49.21689" lon="1.73907">
        <ele>139.05</ele>
        <time>2021-06-08T08:28:14Z</time>
      </trkpt>
      <trkpt lat="49.21684" lon="1.73874">
        <ele>138.57</ele>
        <time>2021-06-08T08:28:33Z</time>
      </trkpt>
      <trkpt lat="49.21682" lon="1.73854">
        <ele>138.09</ele>
        <time>2021-06-08T08:28:45Z</time>
      </trkpt>
      <trkpt lat="49.2168" lon="1.73832">
        <ele>139.05</ele>
        <time>2021-06-08T08:28:58Z</time>
      </trkpt>
      <trkpt lat="49.21678" lon="1.73826">
        <ele>139.05</ele>
        <time>2021-06-08T08:29:02Z</time>
      </trkpt>
      <trkpt lat="49.21674" lon="1.73825">
        <ele>139.05</ele>
        <time>2021-06-08T08:29:06Z</time>
      </trkpt>
      <trkpt lat="49.21673" lon="1.73825">
        <ele>138.57</ele>
        <time>2021-06-08T08:29:07Z</time>
      </trkpt>
      <trkpt lat="49.21654" lon="1.73817">
        <ele>139.05</ele>
        <time>2021-06-08T08:29:21Z</time>
      </trkpt>
      <trkpt lat="49.21639" lon="1.7381">
        <ele>140.01</ele>
        <time>2021-06-08T08:29:35Z</time>
      </trkpt>
      <trkpt lat="49.21637" lon="1.73806">
        <ele>140.01</ele>
        <time>2021-06-08T08:29:38Z</time>
      </trkpt>
      <trkpt lat="49.21636" lon="1.73802">
        <ele>140.01</ele>
        <time>2021-06-08T08:29:53Z</time>
      </trkpt>
      <trkpt lat="49.21633" lon="1.73798">
        <ele>140.97</ele>
        <time>2021-06-08T08:30:18Z</time>
      </trkpt>
      <trkpt lat="49.21636" lon="1.73797">
        <ele>140.01</ele>
        <time>2021-06-08T08:30:34Z</time>
      </trkpt>
      <trkpt lat="49.21636" lon="1.73801">
        <ele>140.49</ele>
        <time>2021-06-08T08:30:55Z</time>
      </trkpt>
      <trkpt lat="49.21635" lon="1.73802">
        <ele>140.49</ele>
        <time>2021-06-08T08:31:22Z</time>
      </trkpt>
      <trkpt lat="49.21634" lon="1.73798">
        <ele>140.97</ele>
        <time>2021-06-08T08:31:51Z</time>
      </trkpt>
      <trkpt lat="49.21635" lon="1.73799">
        <ele>141.45</ele>
        <time>2021-06-08T08:32:17Z</time>
      </trkpt>
      <trkpt lat="49.21637" lon="1.73799">
        <ele>140.97</ele>
        <time>2021-06-08T08:32:42Z</time>
      </trkpt>
      <trkpt lat="49.21636" lon="1.73798">
        <ele>140.97</ele>
        <time>2021-06-08T08:33:02Z</time>
      </trkpt>
      <trkpt lat="49.21636" lon="1.73799">
        <ele>140.97</ele>
        <time>2021-06-08T08:33:29Z</time>
      </trkpt>
      <trkpt lat="49.21637" lon="1.738">
        <ele>140.97</ele>
        <time>2021-06-08T08:33:55Z</time>
      </trkpt>
      <trkpt lat="49.21637" lon="1.738">
        <ele>140.97</ele>
        <time>2021-06-08T08:34:21Z</time>
      </trkpt>
      <trkpt lat="49.21636" lon="1.73801">
        <ele>141.45</ele>
        <time>2021-06-08T08:34:54Z</time>
      </trkpt>
      <trkpt lat="49.21633" lon="1.73793">
        <ele>141.45</ele>
        <time>2021-06-08T08:35:16Z</time>
      </trkpt>
      <trkpt lat="49.21631" lon="1.73781">
        <ele>141.45</ele>
        <time>2021-06-08T08:35:26Z</time>
      </trkpt>
      <trkpt lat="49.21628" lon="1.73759">
        <ele>141.45</ele>
        <time>2021-06-08T08:35:41Z</time>
      </trkpt>
      <trkpt lat="49.21624" lon="1.7373">
        <ele>141.93</ele>
        <time>2021-06-08T08:36:00Z</time>
      </trkpt>
      <trkpt lat="49.2162" lon="1.73704">
        <ele>141.93</ele>
        <time>2021-06-08T08:36:17Z</time>
      </trkpt>
      <trkpt lat="49.21616" lon="1.73672">
        <ele>141.93</ele>
        <time>2021-06-08T08:36:37Z</time>
      </trkpt>
      <trkpt lat="49.21612" lon="1.73644">
        <ele>142.41</ele>
        <time>2021-06-08T08:36:55Z</time>
      </trkpt>
      <trkpt lat="49.21608" lon="1.73615">
        <ele>142.41</ele>
        <time>2021-06-08T08:37:14Z</time>
      </trkpt>
      <trkpt lat="49.21604" lon="1.73583">
        <ele>142.41</ele>
        <time>2021-06-08T08:37:34Z</time>
      </trkpt>
      <trkpt lat="49.216" lon="1.73556">
        <ele>142.41</ele>
        <time>2021-06-08T08:37:52Z</time>
      </trkpt>
      <trkpt lat="49.21597" lon="1.73519">
        <ele>141.93</ele>
        <time>2021-06-08T08:38:15Z</time>
      </trkpt>
      <trkpt lat="49.21593" lon="1.73483">
        <ele>141.45</ele>
        <time>2021-06-08T08:38:37Z</time>
      </trkpt>
      <trkpt lat="49.21589" lon="1.73451">
        <ele>140.97</ele>
        <time>2021-06-08T08:38:56Z</time>
      </trkpt>
      <trkpt lat="49.21584" lon="1.73419">
        <ele>141.45</ele>
        <time>2021-06-08T08:39:15Z</time>
      </trkpt>
      <trkpt lat="49.21579" lon="1.73388">
        <ele>141.45</ele>
        <time>2021-06-08T08:39:34Z</time>
      </trkpt>
      <trkpt lat="49.21576" lon="1.73357">
        <ele>141.45</ele>
        <time>2021-06-08T08:39:53Z</time>
      </trkpt>
      <trkpt lat="49.21572" lon="1.73325">
        <ele>141.45</ele>
        <time>2021-06-08T08:40:12Z</time>
      </trkpt>
      <trkpt lat="49.21569" lon="1.73294">
        <ele>140.97</ele>
        <time>2021-06-08T08:40:30Z</time>
      </trkpt>
      <trkpt lat="49.21565" lon="1.73263">
        <ele>140.97</ele>
        <time>2021-06-08T08:40:49Z</time>
      </trkpt>
      <trkpt lat="49.21562" lon="1.73237">
        <ele>140.97</ele>
        <time>2021-06-08T08:41:06Z</time>
      </trkpt>
      <trkpt lat="49.21559" lon="1.73204">
        <ele>140.97</ele>
        <time>2021-06-08T08:41:26Z</time>
      </trkpt>
      <trkpt lat="49.21555" lon="1.73175">
        <ele>141.45</ele>
        <time>2021-06-08T08:41:44Z</time>
      </trkpt>
      <trkpt lat="49.21555" lon="1.73174">
        <ele>141.45</ele>
        <time>2021-06-08T08:41:45Z</time>
      </trkpt>
      <trkpt lat="49.21551" lon="1.73143">
        <ele>141.45</ele>
        <time>2021-06-08T08:42:05Z</time>
      </trkpt>
      <trkpt lat="49.21547" lon="1.73112">
        <ele>141.45</ele>
        <time>2021-06-08T08:42:25Z</time>
      </trkpt>
      <trkpt lat="49.21543" lon="1.73084">
        <ele>141.45</ele>
        <time>2021-06-08T08:42:43Z</time>
      </trkpt>
      <trkpt lat="49.21539" lon="1.73058">
        <ele>141.45</ele>
        <time>2021-06-08T08:43:00Z</time>
      </trkpt>
      <trkpt lat="49.21534" lon="1.73023">
        <ele>141.93</ele>
        <time>2021-06-08T08:43:21Z</time>
      </trkpt>
      <trkpt lat="49.2153" lon="1.7299">
        <ele>140.97</ele>
        <time>2021-06-08T08:43:41Z</time>
      </trkpt>
      <trkpt lat="49.21525" lon="1.72956">
        <ele>140.97</ele>
        <time>2021-06-08T08:44:01Z</time>
      </trkpt>
      <trkpt lat="49.21522" lon="1.72924">
        <ele>140.49</ele>
        <time>2021-06-08T08:44:20Z</time>
      </trkpt>
      <trkpt lat="49.21517" lon="1.7289">
        <ele>140.01</ele>
        <time>2021-06-08T08:44:41Z</time>
      </trkpt>
      <trkpt lat="49.21512" lon="1.72861">
        <ele>139.53</ele>
        <time>2021-06-08T08:45:00Z</time>
      </trkpt>
      <trkpt lat="49.21508" lon="1.72828">
        <ele>138.57</ele>
        <time>2021-06-08T08:45:20Z</time>
      </trkpt>
      <trkpt lat="49.21504" lon="1.72792">
        <ele>138.09</ele>
        <time>2021-06-08T08:45:41Z</time>
      </trkpt>
      <trkpt lat="49.21499" lon="1.7276">
        <ele>137.13</ele>
        <time>2021-06-08T08:46:00Z</time>
      </trkpt>
      <trkpt lat="49.21491" lon="1.72752">
        <ele>136.16</ele>
        <time>2021-06-08T08:46:10Z</time>
      </trkpt>
      <trkpt lat="49.2149" lon="1.72751">
        <ele>136.64</ele>
        <time>2021-06-08T08:46:11Z</time>
      </trkpt>
      <trkpt lat="49.21474" lon="1.72757">
        <ele>137.61</ele>
        <time>2021-06-08T08:46:26Z</time>
      </trkpt>
      <trkpt lat="49.21461" lon="1.72765">
        <ele>138.57</ele>
        <time>2021-06-08T08:46:41Z</time>
      </trkpt>
      <trkpt lat="49.21444" lon="1.72776">
        <ele>139.05</ele>
        <time>2021-06-08T08:46:58Z</time>
      </trkpt>
      <trkpt lat="49.21426" lon="1.72787">
        <ele>139.53</ele>
        <time>2021-06-08T08:47:17Z</time>
      </trkpt>
      <trkpt lat="49.21411" lon="1.72797">
        <ele>140.01</ele>
        <time>2021-06-08T08:47:34Z</time>
      </trkpt>
      <trkpt lat="49.21397" lon="1.72806">
        <ele>140.97</ele>
        <time>2021-06-08T08:47:50Z</time>
      </trkpt>
      <trkpt lat="49.2138" lon="1.72817">
        <ele>140.97</ele>
        <time>2021-06-08T08:48:09Z</time>
      </trkpt>
      <trkpt lat="49.21366" lon="1.72826">
        <ele>141.93</ele>
        <time>2021-06-08T08:48:26Z</time>
      </trkpt>
      <trkpt lat="49.2135" lon="1.72834">
        <ele>142.41</ele>
        <time>2021-06-08T08:48:43Z</time>
      </trkpt>
      <trkpt lat="49.21335" lon="1.72842">
        <ele>142.89</ele>
        <time>2021-06-08T08:48:59Z</time>
      </trkpt>
      <trkpt lat="49.21327" lon="1.72847">
        <ele>142.89</ele>
        <time>2021-06-08T08:49:07Z</time>
      </trkpt>
      <trkpt lat="49.21326" lon="1.72847">
        <ele>142.89</ele>
        <time>2021-06-08T08:49:08Z</time>
      </trkpt>
      <trkpt lat="49.21311" lon="1.72857">
        <ele>143.37</ele>
        <time>2021-06-08T08:49:25Z</time>
      </trkpt>
      <trkpt lat="49.21294" lon="1.72867">
        <ele>143.85</ele>
        <time>2021-06-08T08:49:42Z</time>
      </trkpt>
      <trkpt lat="49.21275" lon="1.72877">
        <ele>144.34</ele>
        <time>2021-06-08T08:50:02Z</time>
      </trkpt>
      <trkpt lat="49.21257" lon="1.72887">
        <ele>145.3</ele>
        <time>2021-06-08T08:50:20Z</time>
      </trkpt>
      <trkpt lat="49.21239" lon="1.72895">
        <ele>145.3</ele>
        <time>2021-06-08T08:50:38Z</time>
      </trkpt>
      <trkpt lat="49.21221" lon="1.72904">
        <ele>145.3</ele>
        <time>2021-06-08T08:50:57Z</time>
      </trkpt>
      <trkpt lat="49.21203" lon="1.72914">
        <ele>144.82</ele>
        <time>2021-06-08T08:51:16Z</time>
      </trkpt>
      <trkpt lat="49.21182" lon="1.72925">
        <ele>144.82</ele>
        <time>2021-06-08T08:51:37Z</time>
      </trkpt>
      <trkpt lat="49.21162" lon="1.72936">
        <ele>144.82</ele>
        <time>2021-06-08T08:51:57Z</time>
      </trkpt>
      <trkpt lat="49.21143" lon="1.72946">
        <ele>144.82</ele>
        <time>2021-06-08T08:52:16Z</time>
      </trkpt>
      <trkpt lat="49.21141" lon="1.72947">
        <ele>145.3</ele>
        <time>2021-06-08T08:52:18Z</time>
      </trkpt>
      <trkpt lat="49.21124" lon="1.72956">
        <ele>145.3</ele>
        <time>2021-06-08T08:52:35Z</time>
      </trkpt>
      <trkpt lat="49.21104" lon="1.72968">
        <ele>144.82</ele>
        <time>2021-06-08T08:52:55Z</time>
      </trkpt>
      <trkpt lat="49.21085" lon="1.72977">
        <ele>144.82</ele>
        <time>2021-06-08T08:53:13Z</time>
      </trkpt>
      <trkpt lat="49.21065" lon="1.72989">
        <ele>144.82</ele>
        <time>2021-06-08T08:53:33Z</time>
      </trkpt>
      <trkpt lat="49.21047" lon="1.72999">
        <ele>144.34</ele>
        <time>2021-06-08T08:53:51Z</time>
      </trkpt>
      <trkpt lat="49.21025" lon="1.73009">
        <ele>143.37</ele>
        <time>2021-06-08T08:54:11Z</time>
      </trkpt>
      <trkpt lat="49.21008" lon="1.73018">
        <ele>142.89</ele>
        <time>2021-06-08T08:54:28Z</time>
      </trkpt>
      <trkpt lat="49.21004" lon="1.7302">
        <ele>142.89</ele>
        <time>2021-06-08T08:54:33Z</time>
      </trkpt>
      <trkpt lat="49.21003" lon="1.7302">
        <ele>143.37</ele>
        <time>2021-06-08T08:54:34Z</time>
      </trkpt>
      <trkpt lat="49.20983" lon="1.73031">
        <ele>142.89</ele>
        <time>2021-06-08T08:54:53Z</time>
      </trkpt>
      <trkpt lat="49.20966" lon="1.73042">
        <ele>142.89</ele>
        <time>2021-06-08T08:55:11Z</time>
      </trkpt>
      <trkpt lat="49.20964" lon="1.73038">
        <ele>142.41</ele>
        <time>2021-06-08T08:55:25Z</time>
      </trkpt>
      <trkpt lat="49.20949" lon="1.73051">
        <ele>141.93</ele>
        <time>2021-06-08T08:55:41Z</time>
      </trkpt>
      <trkpt lat="49.20925" lon="1.73061">
        <ele>141.93</ele>
        <time>2021-06-08T08:56:01Z</time>
      </trkpt>
      <trkpt lat="49.20903" lon="1.73074">
        <ele>140.49</ele>
        <time>2021-06-08T08:56:20Z</time>
      </trkpt>
      <trkpt lat="49.20902" lon="1.73074">
        <ele>140.49</ele>
        <time>2021-06-08T08:56:32Z</time>
      </trkpt>
      <trkpt lat="49.20897" lon="1.73076">
        <ele>140.49</ele>
        <time>2021-06-08T08:56:51Z</time>
      </trkpt>
      <trkpt lat="49.20892" lon="1.73083">
        <ele>140.49</ele>
        <time>2021-06-08T08:57:03Z</time>
      </trkpt>
      <trkpt lat="49.20891" lon="1.73083">
        <ele>140.01</ele>
        <time>2021-06-08T08:57:04Z</time>
      </trkpt>
      <trkpt lat="49.20882" lon="1.73088">
        <ele>140.01</ele>
        <time>2021-06-08T08:57:18Z</time>
      </trkpt>
      <trkpt lat="49.20866" lon="1.73103">
        <ele>139.53</ele>
        <time>2021-06-08T08:57:36Z</time>
      </trkpt>
      <trkpt lat="49.2085" lon="1.73115">
        <ele>139.05</ele>
        <time>2021-06-08T08:57:53Z</time>
      </trkpt>
      <trkpt lat="49.20828" lon="1.73124">
        <ele>137.61</ele>
        <time>2021-06-08T08:58:15Z</time>
      </trkpt>
      <trkpt lat="49.20824" lon="1.73125">
        <ele>137.61</ele>
        <time>2021-06-08T08:58:29Z</time>
      </trkpt>
      <trkpt lat="49.20804" lon="1.73144">
        <ele>136.16</ele>
        <time>2021-06-08T08:58:47Z</time>
      </trkpt>
      <trkpt lat="49.20793" lon="1.73167">
        <ele>134.72</ele>
        <time>2021-06-08T08:59:05Z</time>
      </trkpt>
      <trkpt lat="49.20785" lon="1.73189">
        <ele>133.76</ele>
        <time>2021-06-08T08:59:22Z</time>
      </trkpt>
      <trkpt lat="49.20775" lon="1.73213">
        <ele>133.28</ele>
        <time>2021-06-08T08:59:40Z</time>
      </trkpt>
      <trkpt lat="49.20765" lon="1.7324">
        <ele>132.8</ele>
        <time>2021-06-08T09:00:00Z</time>
      </trkpt>
      <trkpt lat="49.20755" lon="1.73263">
        <ele>131.36</ele>
        <time>2021-06-08T09:00:17Z</time>
      </trkpt>
      <trkpt lat="49.20748" lon="1.7328">
        <ele>130.88</ele>
        <time>2021-06-08T09:00:32Z</time>
      </trkpt>
      <trkpt lat="49.2074" lon="1.73309">
        <ele>129.43</ele>
        <time>2021-06-08T09:00:51Z</time>
      </trkpt>
      <trkpt lat="49.20735" lon="1.73338">
        <ele>128.47</ele>
        <time>2021-06-08T09:01:09Z</time>
      </trkpt>
      <trkpt lat="49.20736" lon="1.73369">
        <ele>127.99</ele>
        <time>2021-06-08T09:01:28Z</time>
      </trkpt>
      <trkpt lat="49.2074" lon="1.73402">
        <ele>127.03</ele>
        <time>2021-06-08T09:01:49Z</time>
      </trkpt>
      <trkpt lat="49.20739" lon="1.73424">
        <ele>127.03</ele>
        <time>2021-06-08T09:02:06Z</time>
      </trkpt>
      <trkpt lat="49.20741" lon="1.73425">
        <ele>126.55</ele>
        <time>2021-06-08T09:02:29Z</time>
      </trkpt>
      <trkpt lat="49.20741" lon="1.73424">
        <ele>127.03</ele>
        <time>2021-06-08T09:02:39Z</time>
      </trkpt>
      <trkpt lat="49.20741" lon="1.73426">
        <ele>126.55</ele>
        <time>2021-06-08T09:02:46Z</time>
      </trkpt>
      <trkpt lat="49.20742" lon="1.73427">
        <ele>126.55</ele>
        <time>2021-06-08T09:02:47Z</time>
      </trkpt>
      <trkpt lat="49.20742" lon="1.73428">
        <ele>126.55</ele>
        <time>2021-06-08T09:02:48Z</time>
      </trkpt>
      <trkpt lat="49.20743" lon="1.7343">
        <ele>126.55</ele>
        <time>2021-06-08T09:02:49Z</time>
      </trkpt>
      <trkpt lat="49.20743" lon="1.73432">
        <ele>126.55</ele>
        <time>2021-06-08T09:02:50Z</time>
      </trkpt>
      <trkpt lat="49.20743" lon="1.73434">
        <ele>126.55</ele>
        <time>2021-06-08T09:02:51Z</time>
      </trkpt>
      <trkpt lat="49.20744" lon="1.73435">
        <ele>127.03</ele>
        <time>2021-06-08T09:02:52Z</time>
      </trkpt>
      <trkpt lat="49.20744" lon="1.73437">
        <ele>126.55</ele>
        <time>2021-06-08T09:02:53Z</time>
      </trkpt>
      <trkpt lat="49.2075" lon="1.73478">
        <ele>125.59</ele>
        <time>2021-06-08T09:03:14Z</time>
      </trkpt>
      <trkpt lat="49.20762" lon="1.73518">
        <ele>125.59</ele>
        <time>2021-06-08T09:03:36Z</time>
      </trkpt>
      <trkpt lat="49.2077" lon="1.73558">
        <ele>126.07</ele>
        <time>2021-06-08T09:03:57Z</time>
      </trkpt>
      <trkpt lat="49.20772" lon="1.73597">
        <ele>125.11</ele>
        <time>2021-06-08T09:04:18Z</time>
      </trkpt>
      <trkpt lat="49.20774" lon="1.7363">
        <ele>124.63</ele>
        <time>2021-06-08T09:04:38Z</time>
      </trkpt>
      <trkpt lat="49.20776" lon="1.73658">
        <ele>123.67</ele>
        <time>2021-06-08T09:04:55Z</time>
      </trkpt>
      <trkpt lat="49.20779" lon="1.7368">
        <ele>123.67</ele>
        <time>2021-06-08T09:05:09Z</time>
      </trkpt>
      <trkpt lat="49.20781" lon="1.73715">
        <ele>123.19</ele>
        <time>2021-06-08T09:05:31Z</time>
      </trkpt>
      <trkpt lat="49.20782" lon="1.73744">
        <ele>122.22</ele>
        <time>2021-06-08T09:05:49Z</time>
      </trkpt>
      <trkpt lat="49.20782" lon="1.73763">
        <ele>122.22</ele>
        <time>2021-06-08T09:06:01Z</time>
      </trkpt>
      <trkpt lat="49.20782" lon="1.73793">
        <ele>121.74</ele>
        <time>2021-06-08T09:06:21Z</time>
      </trkpt>
      <trkpt lat="49.20782" lon="1.73824">
        <ele>121.74</ele>
        <time>2021-06-08T09:06:41Z</time>
      </trkpt>
      <trkpt lat="49.20783" lon="1.73856">
        <ele>121.74</ele>
        <time>2021-06-08T09:07:00Z</time>
      </trkpt>
      <trkpt lat="49.20785" lon="1.73883">
        <ele>121.26</ele>
        <time>2021-06-08T09:07:17Z</time>
      </trkpt>
      <trkpt lat="49.20784" lon="1.73896">
        <ele>120.78</ele>
        <time>2021-06-08T09:07:33Z</time>
      </trkpt>
      <trkpt lat="49.20785" lon="1.73897">
        <ele>121.26</ele>
        <time>2021-06-08T09:07:55Z</time>
      </trkpt>
      <trkpt lat="49.20786" lon="1.739">
        <ele>121.26</ele>
        <time>2021-06-08T09:07:57Z</time>
      </trkpt>
      <trkpt lat="49.20787" lon="1.73902">
        <ele>121.26</ele>
        <time>2021-06-08T09:07:58Z</time>
      </trkpt>
      <trkpt lat="49.20786" lon="1.73904">
        <ele>120.78</ele>
        <time>2021-06-08T09:07:59Z</time>
      </trkpt>
      <trkpt lat="49.20786" lon="1.73906">
        <ele>120.78</ele>
        <time>2021-06-08T09:08:00Z</time>
      </trkpt>
      <trkpt lat="49.20786" lon="1.73908">
        <ele>120.78</ele>
        <time>2021-06-08T09:08:01Z</time>
      </trkpt>
      <trkpt lat="49.20787" lon="1.7395">
        <ele>119.82</ele>
        <time>2021-06-08T09:08:22Z</time>
      </trkpt>
      <trkpt lat="49.20788" lon="1.7398">
        <ele>117.9</ele>
        <time>2021-06-08T09:08:41Z</time>
      </trkpt>
      <trkpt lat="49.20785" lon="1.74003">
        <ele>116.94</ele>
        <time>2021-06-08T09:08:56Z</time>
      </trkpt>
      <trkpt lat="49.20785" lon="1.74005">
        <ele>115.98</ele>
        <time>2021-06-08T09:09:12Z</time>
      </trkpt>
      <trkpt lat="49.20785" lon="1.74025">
        <ele>115.01</ele>
        <time>2021-06-08T09:09:32Z</time>
      </trkpt>
      <trkpt lat="49.20783" lon="1.7403">
        <ele>113.09</ele>
        <time>2021-06-08T09:09:48Z</time>
      </trkpt>
      <trkpt lat="49.20783" lon="1.74034">
        <ele>113.09</ele>
        <time>2021-06-08T09:10:01Z</time>
      </trkpt>
      <trkpt lat="49.20782" lon="1.74039">
        <ele>112.61</ele>
        <time>2021-06-08T09:10:04Z</time>
      </trkpt>
      <trkpt lat="49.20782" lon="1.7404">
        <ele>112.61</ele>
        <time>2021-06-08T09:10:05Z</time>
      </trkpt>
      <trkpt lat="49.20781" lon="1.74042">
        <ele>112.61</ele>
        <time>2021-06-08T09:10:06Z</time>
      </trkpt>
      <trkpt lat="49.2078" lon="1.74043">
        <ele>112.61</ele>
        <time>2021-06-08T09:10:07Z</time>
      </trkpt>
      <trkpt lat="49.20779" lon="1.74044">
        <ele>112.61</ele>
        <time>2021-06-08T09:10:08Z</time>
      </trkpt>
      <trkpt lat="49.20765" lon="1.74056">
        <ele>109.25</ele>
        <time>2021-06-08T09:10:20Z</time>
      </trkpt>
      <trkpt lat="49.20751" lon="1.74084">
        <ele>105.88</ele>
        <time>2021-06-08T09:10:38Z</time>
      </trkpt>
      <trkpt lat="49.20752" lon="1.74095">
        <ele>104.92</ele>
        <time>2021-06-08T09:10:54Z</time>
      </trkpt>
      <trkpt lat="49.20744" lon="1.74114">
        <ele>103</ele>
        <time>2021-06-08T09:11:05Z</time>
      </trkpt>
      <trkpt lat="49.20733" lon="1.74131">
        <ele>101.08</ele>
        <time>2021-06-08T09:11:16Z</time>
      </trkpt>
      <trkpt lat="49.20731" lon="1.74137">
        <ele>100.6</ele>
        <time>2021-06-08T09:11:20Z</time>
      </trkpt>
      <trkpt lat="49.20732" lon="1.74142">
        <ele>100.6</ele>
        <time>2021-06-08T09:11:31Z</time>
      </trkpt>
      <trkpt lat="49.20735" lon="1.7416">
        <ele>101.08</ele>
        <time>2021-06-08T09:11:45Z</time>
      </trkpt>
      <trkpt lat="49.20735" lon="1.74162">
        <ele>101.08</ele>
        <time>2021-06-08T09:11:46Z</time>
      </trkpt>
      <trkpt lat="49.20735" lon="1.74164">
        <ele>101.08</ele>
        <time>2021-06-08T09:11:47Z</time>
      </trkpt>
      <trkpt lat="49.20736" lon="1.74187">
        <ele>101.56</ele>
        <time>2021-06-08T09:12:01Z</time>
      </trkpt>
      <trkpt lat="49.20736" lon="1.74225">
        <ele>101.08</ele>
        <time>2021-06-08T09:12:20Z</time>
      </trkpt>
      <trkpt lat="49.20738" lon="1.74272">
        <ele>100.6</ele>
        <time>2021-06-08T09:12:43Z</time>
      </trkpt>
      <trkpt lat="49.20739" lon="1.74293">
        <ele>100.11</ele>
        <time>2021-06-08T09:13:00Z</time>
      </trkpt>
      <trkpt lat="49.20739" lon="1.74293">
        <ele>100.11</ele>
        <time>2021-06-08T09:13:18Z</time>
      </trkpt>
      <trkpt lat="49.2074" lon="1.74316">
        <ele>99.63</ele>
        <time>2021-06-08T09:13:34Z</time>
      </trkpt>
      <trkpt lat="49.2074" lon="1.7432">
        <ele>99.63</ele>
        <time>2021-06-08T09:13:36Z</time>
      </trkpt>
      <trkpt lat="49.2074" lon="1.74326">
        <ele>99.15</ele>
        <time>2021-06-08T09:13:40Z</time>
      </trkpt>
      <trkpt lat="49.2074" lon="1.74328">
        <ele>99.63</ele>
        <time>2021-06-08T09:13:41Z</time>
      </trkpt>
      <trkpt lat="49.20738" lon="1.74352">
        <ele>98.19</ele>
        <time>2021-06-08T09:13:56Z</time>
      </trkpt>
      <trkpt lat="49.20737" lon="1.74354">
        <ele>97.71</ele>
        <time>2021-06-08T09:13:58Z</time>
      </trkpt>
      <trkpt lat="49.20736" lon="1.74355">
        <ele>97.71</ele>
        <time>2021-06-08T09:13:59Z</time>
      </trkpt>
      <trkpt lat="49.20726" lon="1.74347">
        <ele>96.75</ele>
        <time>2021-06-08T09:14:11Z</time>
      </trkpt>
      <trkpt lat="49.20706" lon="1.7432">
        <ele>95.31</ele>
        <time>2021-06-08T09:14:33Z</time>
      </trkpt>
      <trkpt lat="49.20693" lon="1.74301">
        <ele>94.35</ele>
        <time>2021-06-08T09:14:51Z</time>
      </trkpt>
      <trkpt lat="49.20684" lon="1.7429">
        <ele>93.87</ele>
        <time>2021-06-08T09:15:09Z</time>
      </trkpt>
      <trkpt lat="49.20667" lon="1.74264">
        <ele>91.94</ele>
        <time>2021-06-08T09:15:31Z</time>
      </trkpt>
      <trkpt lat="49.20644" lon="1.7423">
        <ele>89.54</ele>
        <time>2021-06-08T09:15:58Z</time>
      </trkpt>
      <trkpt lat="49.20626" lon="1.74202">
        <ele>88.1</ele>
        <time>2021-06-08T09:16:21Z</time>
      </trkpt>
      <trkpt lat="49.20609" lon="1.74178">
        <ele>86.18</ele>
        <time>2021-06-08T09:16:42Z</time>
      </trkpt>
      <trkpt lat="49.20591" lon="1.74149">
        <ele>84.73</ele>
        <time>2021-06-08T09:17:03Z</time>
      </trkpt>
      <trkpt lat="49.20572" lon="1.74123">
        <ele>83.29</ele>
        <time>2021-06-08T09:17:24Z</time>
      </trkpt>
      <trkpt lat="49.20551" lon="1.74096">
        <ele>81.85</ele>
        <time>2021-06-08T09:17:47Z</time>
      </trkpt>
      <trkpt lat="49.20531" lon="1.74068">
        <ele>80.41</ele>
        <time>2021-06-08T09:18:09Z</time>
      </trkpt>
      <trkpt lat="49.2051" lon="1.74037">
        <ele>79.93</ele>
        <time>2021-06-08T09:18:33Z</time>
      </trkpt>
      <trkpt lat="49.2049" lon="1.74007">
        <ele>79.93</ele>
        <time>2021-06-08T09:18:55Z</time>
      </trkpt>
      <trkpt lat="49.20473" lon="1.73982">
        <ele>79.45</ele>
        <time>2021-06-08T09:19:15Z</time>
      </trkpt>
      <trkpt lat="49.20454" lon="1.73955">
        <ele>79.45</ele>
        <time>2021-06-08T09:19:37Z</time>
      </trkpt>
      <trkpt lat="49.20437" lon="1.73931">
        <ele>78.97</ele>
        <time>2021-06-08T09:19:57Z</time>
      </trkpt>
      <trkpt lat="49.20427" lon="1.73916">
        <ele>79.45</ele>
        <time>2021-06-08T09:20:13Z</time>
      </trkpt>
      <trkpt lat="49.20425" lon="1.73911">
        <ele>78.97</ele>
        <time>2021-06-08T09:20:19Z</time>
      </trkpt>
      <trkpt lat="49.20412" lon="1.73886">
        <ele>78.48</ele>
        <time>2021-06-08T09:20:36Z</time>
      </trkpt>
      <trkpt lat="49.20403" lon="1.73872">
        <ele>79.45</ele>
        <time>2021-06-08T09:20:51Z</time>
      </trkpt>
      <trkpt lat="49.20403" lon="1.73864">
        <ele>79.45</ele>
        <time>2021-06-08T09:21:04Z</time>
      </trkpt>
      <trkpt lat="49.20397" lon="1.7385">
        <ele>79.45</ele>
        <time>2021-06-08T09:21:22Z</time>
      </trkpt>
      <trkpt lat="49.2039" lon="1.7383">
        <ele>79.93</ele>
        <time>2021-06-08T09:21:36Z</time>
      </trkpt>
      <trkpt lat="49.20378" lon="1.73798">
        <ele>79.45</ele>
        <time>2021-06-08T09:21:55Z</time>
      </trkpt>
      <trkpt lat="49.20373" lon="1.73795">
        <ele>79.45</ele>
        <time>2021-06-08T09:22:00Z</time>
      </trkpt>
      <trkpt lat="49.20371" lon="1.73794">
        <ele>78.97</ele>
        <time>2021-06-08T09:22:03Z</time>
      </trkpt>
      <trkpt lat="49.20361" lon="1.7378">
        <ele>79.93</ele>
        <time>2021-06-08T09:22:19Z</time>
      </trkpt>
      <trkpt lat="49.20362" lon="1.73758">
        <ele>79.93</ele>
        <time>2021-06-08T09:22:36Z</time>
      </trkpt>
      <trkpt lat="49.20369" lon="1.73755">
        <ele>79.93</ele>
        <time>2021-06-08T09:23:02Z</time>
      </trkpt>
      <trkpt lat="49.20367" lon="1.73755">
        <ele>75.6</ele>
        <time>2021-06-08T09:23:06Z</time>
      </trkpt>
      <trkpt lat="49.20367" lon="1.73755">
        <ele>82.81</ele>
        <time>2021-06-08T09:23:07Z</time>
      </trkpt>
      <trkpt lat="49.20362" lon="1.73747">
        <ele>79.93</ele>
        <time>2021-06-08T09:23:17Z</time>
      </trkpt>
      <trkpt lat="49.20358" lon="1.73724">
        <ele>79.45</ele>
        <time>2021-06-08T09:23:34Z</time>
      </trkpt>
      <trkpt lat="49.20361" lon="1.73725">
        <ele>79.93</ele>
        <time>2021-06-08T09:23:53Z</time>
      </trkpt>
      <trkpt lat="49.20361" lon="1.73729">
        <ele>79.45</ele>
        <time>2021-06-08T09:24:04Z</time>
      </trkpt>
      <trkpt lat="49.20362" lon="1.73732">
        <ele>79.45</ele>
        <time>2021-06-08T09:24:05Z</time>
      </trkpt>
      <trkpt lat="49.20359" lon="1.73769">
        <ele>79.93</ele>
        <time>2021-06-08T09:24:24Z</time>
      </trkpt>
      <trkpt lat="49.20359" lon="1.73774">
        <ele>80.41</ele>
        <time>2021-06-08T09:24:39Z</time>
      </trkpt>
      <trkpt lat="49.20361" lon="1.73775">
        <ele>80.41</ele>
        <time>2021-06-08T09:25:02Z</time>
      </trkpt>
      <trkpt lat="49.20357" lon="1.73787">
        <ele>80.41</ele>
        <time>2021-06-08T09:25:18Z</time>
      </trkpt>
      <trkpt lat="49.20358" lon="1.73786">
        <ele>79.93</ele>
        <time>2021-06-08T09:25:38Z</time>
      </trkpt>
      <trkpt lat="49.2036" lon="1.73783">
        <ele>80.41</ele>
        <time>2021-06-08T09:25:55Z</time>
      </trkpt>
      <trkpt lat="49.20362" lon="1.73783">
        <ele>80.41</ele>
        <time>2021-06-08T09:25:56Z</time>
      </trkpt>
      <trkpt lat="49.20371" lon="1.73779">
        <ele>79.93</ele>
        <time>2021-06-08T09:26:12Z</time>
      </trkpt>
      <trkpt lat="49.20384" lon="1.73771">
        <ele>79.93</ele>
        <time>2021-06-08T09:26:29Z</time>
      </trkpt>
      <trkpt lat="49.2039" lon="1.73769">
        <ele>79.45</ele>
        <time>2021-06-08T09:26:41Z</time>
      </trkpt>
      <trkpt lat="49.20391" lon="1.73761">
        <ele>79.45</ele>
        <time>2021-06-08T09:26:55Z</time>
      </trkpt>
      <trkpt lat="49.20385" lon="1.73765">
        <ele>79.45</ele>
        <time>2021-06-08T09:27:07Z</time>
      </trkpt>
      <trkpt lat="49.20385" lon="1.73766">
        <ele>79.45</ele>
        <time>2021-06-08T09:27:08Z</time>
      </trkpt>
      <trkpt lat="49.20384" lon="1.73767">
        <ele>78.97</ele>
        <time>2021-06-08T09:27:09Z</time>
      </trkpt>
      <trkpt lat="49.20373" lon="1.73783">
        <ele>79.93</ele>
        <time>2021-06-08T09:27:23Z</time>
      </trkpt>
      <trkpt lat="49.20359" lon="1.7379">
        <ele>80.41</ele>
        <time>2021-06-08T09:27:40Z</time>
      </trkpt>
      <trkpt lat="49.20359" lon="1.73791">
        <ele>80.41</ele>
        <time>2021-06-08T09:27:59Z</time>
      </trkpt>
      <trkpt lat="49.20358" lon="1.73785">
        <ele>80.89</ele>
        <time>2021-06-08T09:28:14Z</time>
      </trkpt>
      <trkpt lat="49.2036" lon="1.73788">
        <ele>80.41</ele>
        <time>2021-06-08T09:28:38Z</time>
      </trkpt>
      <trkpt lat="49.2036" lon="1.73785">
        <ele>80.89</ele>
        <time>2021-06-08T09:28:51Z</time>
      </trkpt>
      <trkpt lat="49.20361" lon="1.73788">
        <ele>80.89</ele>
        <time>2021-06-08T09:29:07Z</time>
      </trkpt>
      <trkpt lat="49.20359" lon="1.7378">
        <ele>80.41</ele>
        <time>2021-06-08T09:29:27Z</time>
      </trkpt>
      <trkpt lat="49.20359" lon="1.73784">
        <ele>80.89</ele>
        <time>2021-06-08T09:29:47Z</time>
      </trkpt>
      <trkpt lat="49.20361" lon="1.73778">
        <ele>80.89</ele>
        <time>2021-06-08T09:30:01Z</time>
      </trkpt>
      <trkpt lat="49.20364" lon="1.73781">
        <ele>80.41</ele>
        <time>2021-06-08T09:30:07Z</time>
      </trkpt>
      <trkpt lat="49.20365" lon="1.73781">
        <ele>80.41</ele>
        <time>2021-06-08T09:30:08Z</time>
      </trkpt>
      <trkpt lat="49.20366" lon="1.73782">
        <ele>80.41</ele>
        <time>2021-06-08T09:30:09Z</time>
      </trkpt>
      <trkpt lat="49.20381" lon="1.73791">
        <ele>80.41</ele>
        <time>2021-06-08T09:30:23Z</time>
      </trkpt>
      <trkpt lat="49.2038" lon="1.73799">
        <ele>80.41</ele>
        <time>2021-06-08T09:30:41Z</time>
      </trkpt>
      <trkpt lat="49.20378" lon="1.73801">
        <ele>80.89</ele>
        <time>2021-06-08T09:31:09Z</time>
      </trkpt>
      <trkpt lat="49.2038" lon="1.738">
        <ele>80.89</ele>
        <time>2021-06-08T09:31:24Z</time>
      </trkpt>
      <trkpt lat="49.20379" lon="1.738">
        <ele>80.41</ele>
        <time>2021-06-08T09:31:25Z</time>
      </trkpt>
      <trkpt lat="49.20378" lon="1.73799">
        <ele>80.41</ele>
        <time>2021-06-08T09:31:26Z</time>
      </trkpt>
      <trkpt lat="49.20357" lon="1.73798">
        <ele>80.89</ele>
        <time>2021-06-08T09:31:43Z</time>
      </trkpt>
      <trkpt lat="49.20336" lon="1.73807">
        <ele>82.33</ele>
        <time>2021-06-08T09:32:00Z</time>
      </trkpt>
      <trkpt lat="49.20317" lon="1.73821">
        <ele>82.81</ele>
        <time>2021-06-08T09:32:17Z</time>
      </trkpt>
      <trkpt lat="49.20302" lon="1.73842">
        <ele>83.77</ele>
        <time>2021-06-08T09:32:33Z</time>
      </trkpt>
      <trkpt lat="49.20288" lon="1.73857">
        <ele>84.73</ele>
        <time>2021-06-08T09:32:50Z</time>
      </trkpt>
      <trkpt lat="49.20273" lon="1.73874">
        <ele>84.73</ele>
        <time>2021-06-08T09:33:08Z</time>
      </trkpt>
      <trkpt lat="49.20257" lon="1.73891">
        <ele>85.21</ele>
        <time>2021-06-08T09:33:26Z</time>
      </trkpt>
      <trkpt lat="49.20241" lon="1.73911">
        <ele>85.69</ele>
        <time>2021-06-08T09:33:44Z</time>
      </trkpt>
      <trkpt lat="49.20227" lon="1.73929">
        <ele>85.69</ele>
        <time>2021-06-08T09:34:01Z</time>
      </trkpt>
      <trkpt lat="49.20209" lon="1.73949">
        <ele>87.14</ele>
        <time>2021-06-08T09:34:22Z</time>
      </trkpt>
      <trkpt lat="49.20201" lon="1.7396">
        <ele>87.14</ele>
        <time>2021-06-08T09:34:37Z</time>
      </trkpt>
      <trkpt lat="49.20184" lon="1.73974">
        <ele>87.62</ele>
        <time>2021-06-08T09:34:55Z</time>
      </trkpt>
      <trkpt lat="49.2018" lon="1.73975">
        <ele>88.1</ele>
        <time>2021-06-08T09:35:00Z</time>
      </trkpt>
      <trkpt lat="49.20165" lon="1.73972">
        <ele>88.58</ele>
        <time>2021-06-08T09:35:15Z</time>
      </trkpt>
      <trkpt lat="49.20142" lon="1.73969">
        <ele>89.54</ele>
        <time>2021-06-08T09:35:35Z</time>
      </trkpt>
      <trkpt lat="49.2012" lon="1.73965">
        <ele>90.5</ele>
        <time>2021-06-08T09:35:54Z</time>
      </trkpt>
      <trkpt lat="49.20098" lon="1.73963">
        <ele>91.46</ele>
        <time>2021-06-08T09:36:12Z</time>
      </trkpt>
      <trkpt lat="49.20076" lon="1.73964">
        <ele>93.39</ele>
        <time>2021-06-08T09:36:31Z</time>
      </trkpt>
      <trkpt lat="49.20056" lon="1.73963">
        <ele>94.83</ele>
        <time>2021-06-08T09:36:49Z</time>
      </trkpt>
      <trkpt lat="49.20034" lon="1.73959">
        <ele>96.75</ele>
        <time>2021-06-08T09:37:08Z</time>
      </trkpt>
      <trkpt lat="49.20015" lon="1.73956">
        <ele>99.15</ele>
        <time>2021-06-08T09:37:26Z</time>
      </trkpt>
      <trkpt lat="49.19996" lon="1.73952">
        <ele>101.08</ele>
        <time>2021-06-08T09:37:43Z</time>
      </trkpt>
      <trkpt lat="49.19978" lon="1.73947">
        <ele>103.48</ele>
        <time>2021-06-08T09:38:01Z</time>
      </trkpt>
      <trkpt lat="49.1996" lon="1.73943">
        <ele>105.4</ele>
        <time>2021-06-08T09:38:18Z</time>
      </trkpt>
      <trkpt lat="49.19954" lon="1.73938">
        <ele>105.88</ele>
        <time>2021-06-08T09:38:25Z</time>
      </trkpt>
      <trkpt lat="49.19953" lon="1.73937">
        <ele>105.88</ele>
        <time>2021-06-08T09:38:26Z</time>
      </trkpt>
      <trkpt lat="49.19936" lon="1.73922">
        <ele>107.81</ele>
        <time>2021-06-08T09:38:43Z</time>
      </trkpt>
      <trkpt lat="49.19919" lon="1.73912">
        <ele>109.25</ele>
        <time>2021-06-08T09:39:00Z</time>
      </trkpt>
      <trkpt lat="49.19901" lon="1.73905">
        <ele>111.65</ele>
        <time>2021-06-08T09:39:19Z</time>
      </trkpt>
      <trkpt lat="49.19882" lon="1.73901">
        <ele>113.57</ele>
        <time>2021-06-08T09:39:37Z</time>
      </trkpt>
      <trkpt lat="49.19862" lon="1.73892">
        <ele>115.98</ele>
        <time>2021-06-08T09:39:57Z</time>
      </trkpt>
      <trkpt lat="49.1984" lon="1.73886">
        <ele>117.9</ele>
        <time>2021-06-08T09:40:16Z</time>
      </trkpt>
      <trkpt lat="49.19837" lon="1.73883">
        <ele>117.9</ele>
        <time>2021-06-08T09:40:20Z</time>
      </trkpt>
      <trkpt lat="49.19834" lon="1.73882">
        <ele>117.9</ele>
        <time>2021-06-08T09:40:23Z</time>
      </trkpt>
      <trkpt lat="49.19812" lon="1.73876">
        <ele>120.3</ele>
        <time>2021-06-08T09:40:42Z</time>
      </trkpt>
      <trkpt lat="49.19793" lon="1.7387">
        <ele>121.74</ele>
        <time>2021-06-08T09:40:59Z</time>
      </trkpt>
      <trkpt lat="49.19791" lon="1.73869">
        <ele>121.74</ele>
        <time>2021-06-08T09:41:13Z</time>
      </trkpt>
      <trkpt lat="49.19774" lon="1.73862">
        <ele>123.19</ele>
        <time>2021-06-08T09:41:30Z</time>
      </trkpt>
      <trkpt lat="49.19751" lon="1.73853">
        <ele>124.63</ele>
        <time>2021-06-08T09:41:50Z</time>
      </trkpt>
      <trkpt lat="49.19727" lon="1.73843">
        <ele>126.07</ele>
        <time>2021-06-08T09:42:11Z</time>
      </trkpt>
      <trkpt lat="49.197" lon="1.73831">
        <ele>127.99</ele>
        <time>2021-06-08T09:42:33Z</time>
      </trkpt>
      <trkpt lat="49.19672" lon="1.73816">
        <ele>129.43</ele>
        <time>2021-06-08T09:42:56Z</time>
      </trkpt>
      <trkpt lat="49.19648" lon="1.738">
        <ele>131.36</ele>
        <time>2021-06-08T09:43:16Z</time>
      </trkpt>
      <trkpt lat="49.19624" lon="1.73785">
        <ele>133.28</ele>
        <time>2021-06-08T09:43:37Z</time>
      </trkpt>
      <trkpt lat="49.19596" lon="1.73766">
        <ele>135.68</ele>
        <time>2021-06-08T09:43:59Z</time>
      </trkpt>
      <trkpt lat="49.19571" lon="1.73752">
        <ele>136.64</ele>
        <time>2021-06-08T09:44:18Z</time>
      </trkpt>
      <trkpt lat="49.19558" lon="1.73745">
        <ele>137.13</ele>
        <time>2021-06-08T09:44:32Z</time>
      </trkpt>
      <trkpt lat="49.19555" lon="1.73744">
        <ele>137.61</ele>
        <time>2021-06-08T09:44:50Z</time>
      </trkpt>
      <trkpt lat="49.19553" lon="1.73744">
        <ele>137.61</ele>
        <time>2021-06-08T09:44:51Z</time>
      </trkpt>
      <trkpt lat="49.19537" lon="1.7374">
        <ele>138.09</ele>
        <time>2021-06-08T09:45:06Z</time>
      </trkpt>
      <trkpt lat="49.19517" lon="1.73733">
        <ele>138.57</ele>
        <time>2021-06-08T09:45:26Z</time>
      </trkpt>
      <trkpt lat="49.19516" lon="1.73732">
        <ele>138.57</ele>
        <time>2021-06-08T09:45:33Z</time>
      </trkpt>
      <trkpt lat="49.19515" lon="1.73732">
        <ele>138.57</ele>
        <time>2021-06-08T09:45:34Z</time>
      </trkpt>
      <trkpt lat="49.19498" lon="1.7373">
        <ele>139.05</ele>
        <time>2021-06-08T09:45:55Z</time>
      </trkpt>
      <trkpt lat="49.19497" lon="1.73727">
        <ele>139.05</ele>
        <time>2021-06-08T09:46:16Z</time>
      </trkpt>
      <trkpt lat="49.19496" lon="1.73724">
        <ele>139.05</ele>
        <time>2021-06-08T09:46:39Z</time>
      </trkpt>
      <trkpt lat="49.19495" lon="1.73722">
        <ele>138.57</ele>
        <time>2021-06-08T09:47:07Z</time>
      </trkpt>
      <trkpt lat="49.19492" lon="1.73725">
        <ele>138.09</ele>
        <time>2021-06-08T09:47:22Z</time>
      </trkpt>
      <trkpt lat="49.1948" lon="1.7373">
        <ele>138.09</ele>
        <time>2021-06-08T09:47:37Z</time>
      </trkpt>
      <trkpt lat="49.19479" lon="1.73732">
        <ele>137.61</ele>
        <time>2021-06-08T09:47:41Z</time>
      </trkpt>
      <trkpt lat="49.19474" lon="1.73745">
        <ele>138.57</ele>
        <time>2021-06-08T09:47:55Z</time>
      </trkpt>
      <trkpt lat="49.19474" lon="1.73752">
        <ele>138.57</ele>
        <time>2021-06-08T09:48:00Z</time>
      </trkpt>
      <trkpt lat="49.19473" lon="1.73789">
        <ele>139.05</ele>
        <time>2021-06-08T09:48:20Z</time>
      </trkpt>
      <trkpt lat="49.19472" lon="1.73827">
        <ele>140.01</ele>
        <time>2021-06-08T09:48:41Z</time>
      </trkpt>
      <trkpt lat="49.1947" lon="1.7386">
        <ele>140.01</ele>
        <time>2021-06-08T09:49:01Z</time>
      </trkpt>
      <trkpt lat="49.19466" lon="1.73897">
        <ele>141.45</ele>
        <time>2021-06-08T09:49:22Z</time>
      </trkpt>
      <trkpt lat="49.19465" lon="1.73912">
        <ele>141.45</ele>
        <time>2021-06-08T09:49:39Z</time>
      </trkpt>
      <trkpt lat="49.19461" lon="1.73966">
        <ele>141.45</ele>
        <time>2021-06-08T09:50:03Z</time>
      </trkpt>
      <trkpt lat="49.19457" lon="1.74003">
        <ele>140.97</ele>
        <time>2021-06-08T09:50:23Z</time>
      </trkpt>
      <trkpt lat="49.19455" lon="1.74039">
        <ele>140.97</ele>
        <time>2021-06-08T09:50:42Z</time>
      </trkpt>
      <trkpt lat="49.19453" lon="1.74078">
        <ele>140.97</ele>
        <time>2021-06-08T09:51:02Z</time>
      </trkpt>
      <trkpt lat="49.1945" lon="1.74112">
        <ele>141.45</ele>
        <time>2021-06-08T09:51:21Z</time>
      </trkpt>
      <trkpt lat="49.19447" lon="1.74149">
        <ele>140.97</ele>
        <time>2021-06-08T09:51:42Z</time>
      </trkpt>
      <trkpt lat="49.19444" lon="1.74187">
        <ele>140.97</ele>
        <time>2021-06-08T09:52:03Z</time>
      </trkpt>
      <trkpt lat="49.19441" lon="1.74228">
        <ele>141.93</ele>
        <time>2021-06-08T09:52:25Z</time>
      </trkpt>
      <trkpt lat="49.19437" lon="1.74266">
        <ele>141.45</ele>
        <time>2021-06-08T09:52:46Z</time>
      </trkpt>
      <trkpt lat="49.19434" lon="1.74308">
        <ele>141.45</ele>
        <time>2021-06-08T09:53:08Z</time>
      </trkpt>
      <trkpt lat="49.19434" lon="1.7433">
        <ele>141.93</ele>
        <time>2021-06-08T09:53:26Z</time>
      </trkpt>
      <trkpt lat="49.19433" lon="1.74343">
        <ele>141.45</ele>
        <time>2021-06-08T09:53:56Z</time>
      </trkpt>
      <trkpt lat="49.19429" lon="1.74376">
        <ele>140.49</ele>
        <time>2021-06-08T09:54:14Z</time>
      </trkpt>
      <trkpt lat="49.19425" lon="1.7442">
        <ele>140.97</ele>
        <time>2021-06-08T09:54:37Z</time>
      </trkpt>
      <trkpt lat="49.19425" lon="1.74424">
        <ele>140.97</ele>
        <time>2021-06-08T09:54:39Z</time>
      </trkpt>
      <trkpt lat="49.19425" lon="1.74426">
        <ele>140.49</ele>
        <time>2021-06-08T09:54:40Z</time>
      </trkpt>
      <trkpt lat="49.19422" lon="1.7446">
        <ele>140.97</ele>
        <time>2021-06-08T09:55:00Z</time>
      </trkpt>
      <trkpt lat="49.19418" lon="1.74503">
        <ele>140.49</ele>
        <time>2021-06-08T09:55:22Z</time>
      </trkpt>
      <trkpt lat="49.19414" lon="1.74547">
        <ele>140.01</ele>
        <time>2021-06-08T09:55:44Z</time>
      </trkpt>
      <trkpt lat="49.19413" lon="1.74589">
        <ele>140.01</ele>
        <time>2021-06-08T09:56:04Z</time>
      </trkpt>
      <trkpt lat="49.19409" lon="1.74632">
        <ele>139.53</ele>
        <time>2021-06-08T09:56:25Z</time>
      </trkpt>
      <trkpt lat="49.19405" lon="1.7467">
        <ele>139.05</ele>
        <time>2021-06-08T09:56:45Z</time>
      </trkpt>
      <trkpt lat="49.19403" lon="1.74707">
        <ele>138.09</ele>
        <time>2021-06-08T09:57:05Z</time>
      </trkpt>
      <trkpt lat="49.19399" lon="1.74743">
        <ele>137.13</ele>
        <time>2021-06-08T09:57:24Z</time>
      </trkpt>
      <trkpt lat="49.19397" lon="1.74776">
        <ele>136.16</ele>
        <time>2021-06-08T09:57:41Z</time>
      </trkpt>
      <trkpt lat="49.19398" lon="1.74809">
        <ele>135.2</ele>
        <time>2021-06-08T09:58:00Z</time>
      </trkpt>
      <trkpt lat="49.19417" lon="1.74832">
        <ele>134.24</ele>
        <time>2021-06-08T09:58:20Z</time>
      </trkpt>
      <trkpt lat="49.19439" lon="1.7486">
        <ele>133.76</ele>
        <time>2021-06-08T09:58:43Z</time>
      </trkpt>
      <trkpt lat="49.19452" lon="1.74878">
        <ele>132.8</ele>
        <time>2021-06-08T09:58:59Z</time>
      </trkpt>
      <trkpt lat="49.19455" lon="1.74881">
        <ele>132.32</ele>
        <time>2021-06-08T09:59:03Z</time>
      </trkpt>
      <trkpt lat="49.19457" lon="1.7488">
        <ele>132.32</ele>
        <time>2021-06-08T09:59:04Z</time>
      </trkpt>
      <trkpt lat="49.19459" lon="1.74882">
        <ele>131.84</ele>
        <time>2021-06-08T09:59:07Z</time>
      </trkpt>
      <trkpt lat="49.19477" lon="1.74898">
        <ele>130.88</ele>
        <time>2021-06-08T09:59:27Z</time>
      </trkpt>
      <trkpt lat="49.19495" lon="1.74917">
        <ele>129.92</ele>
        <time>2021-06-08T09:59:48Z</time>
      </trkpt>
      <trkpt lat="49.19505" lon="1.74927">
        <ele>128.95</ele>
        <time>2021-06-08T10:00:01Z</time>
      </trkpt>
      <trkpt lat="49.19524" lon="1.74945">
        <ele>127.51</ele>
        <time>2021-06-08T10:00:21Z</time>
      </trkpt>
      <trkpt lat="49.19543" lon="1.74964">
        <ele>126.07</ele>
        <time>2021-06-08T10:00:41Z</time>
      </trkpt>
      <trkpt lat="49.19545" lon="1.74965">
        <ele>126.07</ele>
        <time>2021-06-08T10:00:43Z</time>
      </trkpt>
      <trkpt lat="49.19552" lon="1.74967">
        <ele>125.59</ele>
        <time>2021-06-08T10:01:04Z</time>
      </trkpt>
      <trkpt lat="49.19551" lon="1.74972">
        <ele>125.59</ele>
        <time>2021-06-08T10:01:36Z</time>
      </trkpt>
      <trkpt lat="49.1955" lon="1.74972">
        <ele>126.07</ele>
        <time>2021-06-08T10:02:04Z</time>
      </trkpt>
      <trkpt lat="49.19558" lon="1.74976">
        <ele>125.59</ele>
        <time>2021-06-08T10:02:17Z</time>
      </trkpt>
      <trkpt lat="49.19563" lon="1.74983">
        <ele>125.11</ele>
        <time>2021-06-08T10:02:25Z</time>
      </trkpt>
      <trkpt lat="49.19579" lon="1.74998">
        <ele>123.67</ele>
        <time>2021-06-08T10:02:44Z</time>
      </trkpt>
      <trkpt lat="49.19595" lon="1.75014">
        <ele>122.71</ele>
        <time>2021-06-08T10:03:03Z</time>
      </trkpt>
      <trkpt lat="49.19614" lon="1.75033">
        <ele>121.26</ele>
        <time>2021-06-08T10:03:25Z</time>
      </trkpt>
      <trkpt lat="49.19616" lon="1.75036">
        <ele>121.26</ele>
        <time>2021-06-08T10:03:28Z</time>
      </trkpt>
      <trkpt lat="49.19617" lon="1.75036">
        <ele>121.26</ele>
        <time>2021-06-08T10:03:29Z</time>
      </trkpt>
      <trkpt lat="49.19618" lon="1.75037">
        <ele>121.26</ele>
        <time>2021-06-08T10:03:30Z</time>
      </trkpt>
      <trkpt lat="49.19635" lon="1.75055">
        <ele>119.34</ele>
        <time>2021-06-08T10:03:50Z</time>
      </trkpt>
      <trkpt lat="49.19646" lon="1.75065">
        <ele>118.86</ele>
        <time>2021-06-08T10:04:02Z</time>
      </trkpt>
      <trkpt lat="49.19648" lon="1.75066">
        <ele>118.38</ele>
        <time>2021-06-08T10:04:04Z</time>
      </trkpt>
      <trkpt lat="49.19649" lon="1.75068">
        <ele>118.38</ele>
        <time>2021-06-08T10:04:05Z</time>
      </trkpt>
      <trkpt lat="49.19659" lon="1.75078">
        <ele>117.9</ele>
        <time>2021-06-08T10:04:16Z</time>
      </trkpt>
      <trkpt lat="49.19671" lon="1.7509">
        <ele>117.42</ele>
        <time>2021-06-08T10:04:29Z</time>
      </trkpt>
      <trkpt lat="49.19674" lon="1.75094">
        <ele>116.46</ele>
        <time>2021-06-08T10:04:34Z</time>
      </trkpt>
      <trkpt lat="49.19676" lon="1.75095">
        <ele>116.94</ele>
        <time>2021-06-08T10:04:35Z</time>
      </trkpt>
      <trkpt lat="49.19686" lon="1.751">
        <ele>116.46</ele>
        <time>2021-06-08T10:04:52Z</time>
      </trkpt>
      <trkpt lat="49.19694" lon="1.75103">
        <ele>115.01</ele>
        <time>2021-06-08T10:05:05Z</time>
      </trkpt>
      <trkpt lat="49.19695" lon="1.75103">
        <ele>115.5</ele>
        <time>2021-06-08T10:05:06Z</time>
      </trkpt>
      <trkpt lat="49.19708" lon="1.75103">
        <ele>115.01</ele>
        <time>2021-06-08T10:05:20Z</time>
      </trkpt>
      <trkpt lat="49.19728" lon="1.75103">
        <ele>114.53</ele>
        <time>2021-06-08T10:05:39Z</time>
      </trkpt>
      <trkpt lat="49.19747" lon="1.75104">
        <ele>113.57</ele>
        <time>2021-06-08T10:05:56Z</time>
      </trkpt>
      <trkpt lat="49.19772" lon="1.75104">
        <ele>112.13</ele>
        <time>2021-06-08T10:06:18Z</time>
      </trkpt>
      <trkpt lat="49.19794" lon="1.75106">
        <ele>111.17</ele>
        <time>2021-06-08T10:06:37Z</time>
      </trkpt>
      <trkpt lat="49.19819" lon="1.75108">
        <ele>109.73</ele>
        <time>2021-06-08T10:06:58Z</time>
      </trkpt>
      <trkpt lat="49.19833" lon="1.7511">
        <ele>109.25</ele>
        <time>2021-06-08T10:07:11Z</time>
      </trkpt>
      <trkpt lat="49.19834" lon="1.75111">
        <ele>109.25</ele>
        <time>2021-06-08T10:07:12Z</time>
      </trkpt>
      <trkpt lat="49.19835" lon="1.75111">
        <ele>109.25</ele>
        <time>2021-06-08T10:07:13Z</time>
      </trkpt>
      <trkpt lat="49.1986" lon="1.75128">
        <ele>108.29</ele>
        <time>2021-06-08T10:07:36Z</time>
      </trkpt>
      <trkpt lat="49.19862" lon="1.7513">
        <ele>107.81</ele>
        <time>2021-06-08T10:07:39Z</time>
      </trkpt>
      <trkpt lat="49.19862" lon="1.75131">
        <ele>107.81</ele>
        <time>2021-06-08T10:07:40Z</time>
      </trkpt>
      <trkpt lat="49.19863" lon="1.75132">
        <ele>107.81</ele>
        <time>2021-06-08T10:07:41Z</time>
      </trkpt>
      <trkpt lat="49.19877" lon="1.75151">
        <ele>106.36</ele>
        <time>2021-06-08T10:08:00Z</time>
      </trkpt>
      <trkpt lat="49.19878" lon="1.75152">
        <ele>106.36</ele>
        <time>2021-06-08T10:08:18Z</time>
      </trkpt>
      <trkpt lat="49.19884" lon="1.75159">
        <ele>106.84</ele>
        <time>2021-06-08T10:08:37Z</time>
      </trkpt>
      <trkpt lat="49.19898" lon="1.75183">
        <ele>104.92</ele>
        <time>2021-06-08T10:08:54Z</time>
      </trkpt>
      <trkpt lat="49.19904" lon="1.75192">
        <ele>104.44</ele>
        <time>2021-06-08T10:09:12Z</time>
      </trkpt>
      <trkpt lat="49.19912" lon="1.75202">
        <ele>103.48</ele>
        <time>2021-06-08T10:09:26Z</time>
      </trkpt>
      <trkpt lat="49.19919" lon="1.75214">
        <ele>103</ele>
        <time>2021-06-08T10:09:36Z</time>
      </trkpt>
      <trkpt lat="49.1992" lon="1.75215">
        <ele>103</ele>
        <time>2021-06-08T10:09:37Z</time>
      </trkpt>
      <trkpt lat="49.19921" lon="1.75216">
        <ele>102.04</ele>
        <time>2021-06-08T10:09:38Z</time>
      </trkpt>
      <trkpt lat="49.19939" lon="1.75243">
        <ele>100.6</ele>
        <time>2021-06-08T10:09:59Z</time>
      </trkpt>
      <trkpt lat="49.19954" lon="1.75264">
        <ele>99.15</ele>
        <time>2021-06-08T10:10:17Z</time>
      </trkpt>
      <trkpt lat="49.19975" lon="1.75293">
        <ele>96.75</ele>
        <time>2021-06-08T10:10:39Z</time>
      </trkpt>
      <trkpt lat="49.19994" lon="1.75322">
        <ele>96.27</ele>
        <time>2021-06-08T10:11:02Z</time>
      </trkpt>
      <trkpt lat="49.20014" lon="1.7535">
        <ele>94.83</ele>
        <time>2021-06-08T10:11:23Z</time>
      </trkpt>
      <trkpt lat="49.20033" lon="1.75379">
        <ele>93.39</ele>
        <time>2021-06-08T10:11:44Z</time>
      </trkpt>
      <trkpt lat="49.20048" lon="1.75401">
        <ele>92.42</ele>
        <time>2021-06-08T10:12:01Z</time>
      </trkpt>
      <trkpt lat="49.20063" lon="1.75423">
        <ele>92.42</ele>
        <time>2021-06-08T10:12:19Z</time>
      </trkpt>
      <trkpt lat="49.20082" lon="1.7545">
        <ele>92.42</ele>
        <time>2021-06-08T10:12:41Z</time>
      </trkpt>
      <trkpt lat="49.201" lon="1.75477">
        <ele>91.46</ele>
        <time>2021-06-08T10:13:02Z</time>
      </trkpt>
      <trkpt lat="49.20112" lon="1.75498">
        <ele>90.98</ele>
        <time>2021-06-08T10:13:21Z</time>
      </trkpt>
      <trkpt lat="49.20116" lon="1.75503">
        <ele>90.98</ele>
        <time>2021-06-08T10:13:37Z</time>
      </trkpt>
      <trkpt lat="49.20116" lon="1.75504">
        <ele>90.98</ele>
        <time>2021-06-08T10:13:53Z</time>
      </trkpt>
      <trkpt lat="49.20117" lon="1.75506">
        <ele>91.94</ele>
        <time>2021-06-08T10:14:10Z</time>
      </trkpt>
      <trkpt lat="49.20123" lon="1.75513">
        <ele>91.46</ele>
        <time>2021-06-08T10:14:24Z</time>
      </trkpt>
      <trkpt lat="49.20124" lon="1.75516">
        <ele>91.46</ele>
        <time>2021-06-08T10:14:41Z</time>
      </trkpt>
      <trkpt lat="49.20125" lon="1.75516">
        <ele>90.5</ele>
        <time>2021-06-08T10:14:42Z</time>
      </trkpt>
      <trkpt lat="49.20126" lon="1.75516">
        <ele>90.5</ele>
        <time>2021-06-08T10:14:43Z</time>
      </trkpt>
      <trkpt lat="49.20128" lon="1.75516">
        <ele>90.98</ele>
        <time>2021-06-08T10:14:44Z</time>
      </trkpt>
      <trkpt lat="49.20129" lon="1.75516">
        <ele>90.98</ele>
        <time>2021-06-08T10:14:45Z</time>
      </trkpt>
      <trkpt lat="49.20131" lon="1.75516">
        <ele>90.98</ele>
        <time>2021-06-08T10:14:46Z</time>
      </trkpt>
      <trkpt lat="49.20152" lon="1.75518">
        <ele>90.5</ele>
        <time>2021-06-08T10:15:04Z</time>
      </trkpt>
      <trkpt lat="49.20153" lon="1.75522">
        <ele>90.5</ele>
        <time>2021-06-08T10:15:17Z</time>
      </trkpt>
      <trkpt lat="49.20154" lon="1.75524">
        <ele>90.98</ele>
        <time>2021-06-08T10:15:18Z</time>
      </trkpt>
      <trkpt lat="49.20155" lon="1.75526">
        <ele>90.5</ele>
        <time>2021-06-08T10:15:19Z</time>
      </trkpt>
      <trkpt lat="49.20156" lon="1.75527">
        <ele>90.98</ele>
        <time>2021-06-08T10:15:20Z</time>
      </trkpt>
      <trkpt lat="49.20157" lon="1.75528">
        <ele>90.98</ele>
        <time>2021-06-08T10:15:21Z</time>
      </trkpt>
      <trkpt lat="49.20158" lon="1.75529">
        <ele>90.5</ele>
        <time>2021-06-08T10:15:22Z</time>
      </trkpt>
      <trkpt lat="49.20189" lon="1.75545">
        <ele>90.98</ele>
        <time>2021-06-08T10:15:45Z</time>
      </trkpt>
      <trkpt lat="49.20194" lon="1.75547">
        <ele>90.5</ele>
        <time>2021-06-08T10:15:57Z</time>
      </trkpt>
      <trkpt lat="49.20198" lon="1.75549">
        <ele>90.5</ele>
        <time>2021-06-08T10:16:15Z</time>
      </trkpt>
      <trkpt lat="49.202" lon="1.75548">
        <ele>91.46</ele>
        <time>2021-06-08T10:16:35Z</time>
      </trkpt>
      <trkpt lat="49.20199" lon="1.75547">
        <ele>90.98</ele>
        <time>2021-06-08T10:16:52Z</time>
      </trkpt>
      <trkpt lat="49.20203" lon="1.75551">
        <ele>90.98</ele>
        <time>2021-06-08T10:17:16Z</time>
      </trkpt>
      <trkpt lat="49.20213" lon="1.7555">
        <ele>90.02</ele>
        <time>2021-06-08T10:17:31Z</time>
      </trkpt>
      <trkpt lat="49.20214" lon="1.75544">
        <ele>90.5</ele>
        <time>2021-06-08T10:17:50Z</time>
      </trkpt>
      <trkpt lat="49.20216" lon="1.75544">
        <ele>90.02</ele>
        <time>2021-06-08T10:18:10Z</time>
      </trkpt>
      <trkpt lat="49.20215" lon="1.75543">
        <ele>89.06</ele>
        <time>2021-06-08T10:18:28Z</time>
      </trkpt>
      <trkpt lat="49.20214" lon="1.75542">
        <ele>79.45</ele>
        <time>2021-06-08T10:18:36Z</time>
      </trkpt>
      <trkpt lat="49.20214" lon="1.75543">
        <ele>94.35</ele>
        <time>2021-06-08T10:18:37Z</time>
      </trkpt>
      <trkpt lat="49.20214" lon="1.75543">
        <ele>92.42</ele>
        <time>2021-06-08T10:18:38Z</time>
      </trkpt>
      <trkpt lat="49.20213" lon="1.75545">
        <ele>89.06</ele>
        <time>2021-06-08T10:18:40Z</time>
      </trkpt>
      <trkpt lat="49.20213" lon="1.75546">
        <ele>88.58</ele>
        <time>2021-06-08T10:18:41Z</time>
      </trkpt>
      <trkpt lat="49.20215" lon="1.75553">
        <ele>88.58</ele>
        <time>2021-06-08T10:19:02Z</time>
      </trkpt>
      <trkpt lat="49.20216" lon="1.75546">
        <ele>89.06</ele>
        <time>2021-06-08T10:19:24Z</time>
      </trkpt>
      <trkpt lat="49.20217" lon="1.7555">
        <ele>88.1</ele>
        <time>2021-06-08T10:19:52Z</time>
      </trkpt>
      <trkpt lat="49.20222" lon="1.75564">
        <ele>90.02</ele>
        <time>2021-06-08T10:20:14Z</time>
      </trkpt>
      <trkpt lat="49.20221" lon="1.75564">
        <ele>89.54</ele>
        <time>2021-06-08T10:20:17Z</time>
      </trkpt>
      <trkpt lat="49.2022" lon="1.75566">
        <ele>90.5</ele>
        <time>2021-06-08T10:20:22Z</time>
      </trkpt>
      <trkpt lat="49.2022" lon="1.75566">
        <ele>88.58</ele>
        <time>2021-06-08T10:20:23Z</time>
      </trkpt>
      <trkpt lat="49.2022" lon="1.75567">
        <ele>88.1</ele>
        <time>2021-06-08T10:20:26Z</time>
      </trkpt>
      <trkpt lat="49.2022" lon="1.75567">
        <ele>89.54</ele>
        <time>2021-06-08T10:20:27Z</time>
      </trkpt>
      <trkpt lat="49.20217" lon="1.75558">
        <ele>89.54</ele>
        <time>2021-06-08T10:20:56Z</time>
      </trkpt>
      <trkpt lat="49.20218" lon="1.75547">
        <ele>84.25</ele>
        <time>2021-06-08T10:21:22Z</time>
      </trkpt>
      <trkpt lat="49.20219" lon="1.75547">
        <ele>91.94</ele>
        <time>2021-06-08T10:21:23Z</time>
      </trkpt>
      <trkpt lat="49.20218" lon="1.75546">
        <ele>91.94</ele>
        <time>2021-06-08T10:21:24Z</time>
      </trkpt>
      <trkpt lat="49.20219" lon="1.75546">
        <ele>90.02</ele>
        <time>2021-06-08T10:21:27Z</time>
      </trkpt>
      <trkpt lat="49.20213" lon="1.75558">
        <ele>89.54</ele>
        <time>2021-06-08T10:21:45Z</time>
      </trkpt>
      <trkpt lat="49.20211" lon="1.75553">
        <ele>90.02</ele>
        <time>2021-06-08T10:22:08Z</time>
      </trkpt>
      <trkpt lat="49.20211" lon="1.7555">
        <ele>90.5</ele>
        <time>2021-06-08T10:22:42Z</time>
      </trkpt>
      <trkpt lat="49.20214" lon="1.75546">
        <ele>90.5</ele>
        <time>2021-06-08T10:23:07Z</time>
      </trkpt>
      <trkpt lat="49.20215" lon="1.75547">
        <ele>90.02</ele>
        <time>2021-06-08T10:23:25Z</time>
      </trkpt>
      <trkpt lat="49.20212" lon="1.75544">
        <ele>75.12</ele>
        <time>2021-06-08T10:23:45Z</time>
      </trkpt>
      <trkpt lat="49.20212" lon="1.75544">
        <ele>97.71</ele>
        <time>2021-06-08T10:23:46Z</time>
      </trkpt>
      <trkpt lat="49.20211" lon="1.75544">
        <ele>90.5</ele>
        <time>2021-06-08T10:23:47Z</time>
      </trkpt>
      <trkpt lat="49.20212" lon="1.75544">
        <ele>89.06</ele>
        <time>2021-06-08T10:23:50Z</time>
      </trkpt>
      <trkpt lat="49.20217" lon="1.75544">
        <ele>90.02</ele>
        <time>2021-06-08T10:24:12Z</time>
      </trkpt>
      <trkpt lat="49.20214" lon="1.75549">
        <ele>89.06</ele>
        <time>2021-06-08T10:24:40Z</time>
      </trkpt>
      <trkpt lat="49.20214" lon="1.75544">
        <ele>89.54</ele>
        <time>2021-06-08T10:25:10Z</time>
      </trkpt>
      <trkpt lat="49.20216" lon="1.75539">
        <ele>89.54</ele>
        <time>2021-06-08T10:25:35Z</time>
      </trkpt>
      <trkpt lat="49.20211" lon="1.75544">
        <ele>90.02</ele>
        <time>2021-06-08T10:25:58Z</time>
      </trkpt>
      <trkpt lat="49.20211" lon="1.75542">
        <ele>90.02</ele>
        <time>2021-06-08T10:25:59Z</time>
      </trkpt>
      <trkpt lat="49.20207" lon="1.75532">
        <ele>90.02</ele>
        <time>2021-06-08T10:26:17Z</time>
      </trkpt>
      <trkpt lat="49.20209" lon="1.75544">
        <ele>89.54</ele>
        <time>2021-06-08T10:26:50Z</time>
      </trkpt>
      <trkpt lat="49.20207" lon="1.75552">
        <ele>90.02</ele>
        <time>2021-06-08T10:27:23Z</time>
      </trkpt>
      <trkpt lat="49.20202" lon="1.7555">
        <ele>89.54</ele>
        <time>2021-06-08T10:27:49Z</time>
      </trkpt>
      <trkpt lat="49.20198" lon="1.75547">
        <ele>90.02</ele>
        <time>2021-06-08T10:28:17Z</time>
      </trkpt>
      <trkpt lat="49.20216" lon="1.75546">
        <ele>89.54</ele>
        <time>2021-06-08T10:28:43Z</time>
      </trkpt>
      <trkpt lat="49.20215" lon="1.75545">
        <ele>84.25</ele>
        <time>2021-06-08T10:29:02Z</time>
      </trkpt>
      <trkpt lat="49.20215" lon="1.75545">
        <ele>89.06</ele>
        <time>2021-06-08T10:29:03Z</time>
      </trkpt>
      <trkpt lat="49.20214" lon="1.75545">
        <ele>90.02</ele>
        <time>2021-06-08T10:29:05Z</time>
      </trkpt>
      <trkpt lat="49.20213" lon="1.75545">
        <ele>93.87</ele>
        <time>2021-06-08T10:29:08Z</time>
      </trkpt>
      <trkpt lat="49.20213" lon="1.75545">
        <ele>90.02</ele>
        <time>2021-06-08T10:29:09Z</time>
      </trkpt>
      <trkpt lat="49.20213" lon="1.75545">
        <ele>90.02</ele>
        <time>2021-06-08T10:29:10Z</time>
      </trkpt>
      <trkpt lat="49.20214" lon="1.7555">
        <ele>90.02</ele>
        <time>2021-06-08T10:29:40Z</time>
      </trkpt>
      <trkpt lat="49.20214" lon="1.75564">
        <ele>89.54</ele>
        <time>2021-06-08T10:30:07Z</time>
      </trkpt>
      <trkpt lat="49.20213" lon="1.75569">
        <ele>84.73</ele>
        <time>2021-06-08T10:30:14Z</time>
      </trkpt>
      <trkpt lat="49.20212" lon="1.7557">
        <ele>84.73</ele>
        <time>2021-06-08T10:30:15Z</time>
      </trkpt>
      <trkpt lat="49.20212" lon="1.7557">
        <ele>90.02</ele>
        <time>2021-06-08T10:30:16Z</time>
      </trkpt>
      <trkpt lat="49.20212" lon="1.75573">
        <ele>93.39</ele>
        <time>2021-06-08T10:30:19Z</time>
      </trkpt>
      <trkpt lat="49.20212" lon="1.75573">
        <ele>92.9</ele>
        <time>2021-06-08T10:30:20Z</time>
      </trkpt>
      <trkpt lat="49.20212" lon="1.75574">
        <ele>90.5</ele>
        <time>2021-06-08T10:30:21Z</time>
      </trkpt>
      <trkpt lat="49.20221" lon="1.75544">
        <ele>90.02</ele>
        <time>2021-06-08T10:33:26Z</time>
      </trkpt>
      <trkpt lat="49.20215" lon="1.75546">
        <ele>90.02</ele>
        <time>2021-06-08T10:33:52Z</time>
      </trkpt>
      <trkpt lat="49.20215" lon="1.7555">
        <ele>90.02</ele>
        <time>2021-06-08T10:34:37Z</time>
      </trkpt>
      <trkpt lat="49.20215" lon="1.75552">
        <ele>90.02</ele>
        <time>2021-06-08T10:35:18Z</time>
      </trkpt>
      <trkpt lat="49.20214" lon="1.7555">
        <ele>90.02</ele>
        <time>2021-06-08T10:36:01Z</time>
      </trkpt>
      <trkpt lat="49.20219" lon="1.75545">
        <ele>90.02</ele>
        <time>2021-06-08T10:36:35Z</time>
      </trkpt>
      <trkpt lat="49.20216" lon="1.75545">
        <ele>89.54</ele>
        <time>2021-06-08T10:37:08Z</time>
      </trkpt>
      <trkpt lat="49.20215" lon="1.75546">
        <ele>90.02</ele>
        <time>2021-06-08T10:37:40Z</time>
      </trkpt>
      <trkpt lat="49.20214" lon="1.75547">
        <ele>90.02</ele>
        <time>2021-06-08T10:38:12Z</time>
      </trkpt>
      <trkpt lat="49.20214" lon="1.75545">
        <ele>90.02</ele>
        <time>2021-06-08T10:38:47Z</time>
      </trkpt>
      <trkpt lat="49.20212" lon="1.75545">
        <ele>90.02</ele>
        <time>2021-06-08T10:39:25Z</time>
      </trkpt>
      <trkpt lat="49.20215" lon="1.7555">
        <ele>90.02</ele>
        <time>2021-06-08T10:39:58Z</time>
      </trkpt>
      <trkpt lat="49.20211" lon="1.7555">
        <ele>90.5</ele>
        <time>2021-06-08T10:40:30Z</time>
      </trkpt>
      <trkpt lat="49.20213" lon="1.75552">
        <ele>90.02</ele>
        <time>2021-06-08T10:41:09Z</time>
      </trkpt>
      <trkpt lat="49.20213" lon="1.75553">
        <ele>90.02</ele>
        <time>2021-06-08T10:41:47Z</time>
      </trkpt>
      <trkpt lat="49.20214" lon="1.75548">
        <ele>90.02</ele>
        <time>2021-06-08T10:42:23Z</time>
      </trkpt>
      <trkpt lat="49.20218" lon="1.75547">
        <ele>90.5</ele>
        <time>2021-06-08T10:42:53Z</time>
      </trkpt>
      <trkpt lat="49.20216" lon="1.75554">
        <ele>90.02</ele>
        <time>2021-06-08T10:43:22Z</time>
      </trkpt>
      <trkpt lat="49.20215" lon="1.75549">
        <ele>90.02</ele>
        <time>2021-06-08T10:43:55Z</time>
      </trkpt>
      <trkpt lat="49.20216" lon="1.75548">
        <ele>90.5</ele>
        <time>2021-06-08T10:44:27Z</time>
      </trkpt>
      <trkpt lat="49.20215" lon="1.75549">
        <ele>90.02</ele>
        <time>2021-06-08T10:45:05Z</time>
      </trkpt>
      <trkpt lat="49.20216" lon="1.75548">
        <ele>90.5</ele>
        <time>2021-06-08T10:45:34Z</time>
      </trkpt>
      <trkpt lat="49.20213" lon="1.75548">
        <ele>90.02</ele>
        <time>2021-06-08T10:46:13Z</time>
      </trkpt>
      <trkpt lat="49.20214" lon="1.75549">
        <ele>90.5</ele>
        <time>2021-06-08T10:46:47Z</time>
      </trkpt>
      <trkpt lat="49.20215" lon="1.75551">
        <ele>90.02</ele>
        <time>2021-06-08T10:47:20Z</time>
      </trkpt>
      <trkpt lat="49.20215" lon="1.75548">
        <ele>89.54</ele>
        <time>2021-06-08T10:47:56Z</time>
      </trkpt>
      <trkpt lat="49.20217" lon="1.75545">
        <ele>90.02</ele>
        <time>2021-06-08T10:48:33Z</time>
      </trkpt>
      <trkpt lat="49.20218" lon="1.75547">
        <ele>90.02</ele>
        <time>2021-06-08T10:49:18Z</time>
      </trkpt>
      <trkpt lat="49.20215" lon="1.75548">
        <ele>90.02</ele>
        <time>2021-06-08T10:49:44Z</time>
      </trkpt>
      <trkpt lat="49.20215" lon="1.75548">
        <ele>88.58</ele>
        <time>2021-06-08T10:49:48Z</time>
      </trkpt>
      <trkpt lat="49.20213" lon="1.75548">
        <ele>90.02</ele>
        <time>2021-06-08T10:50:17Z</time>
      </trkpt>
      <trkpt lat="49.20214" lon="1.75545">
        <ele>90.02</ele>
        <time>2021-06-08T10:50:42Z</time>
      </trkpt>
      <trkpt lat="49.20215" lon="1.75548">
        <ele>90.5</ele>
        <time>2021-06-08T10:51:08Z</time>
      </trkpt>
      <trkpt lat="49.20215" lon="1.75551">
        <ele>90.02</ele>
        <time>2021-06-08T10:55:25Z</time>
      </trkpt>
      <trkpt lat="49.2022" lon="1.7555">
        <ele>90.98</ele>
        <time>2021-06-08T10:55:40Z</time>
      </trkpt>
      <trkpt lat="49.20219" lon="1.75546">
        <ele>89.54</ele>
        <time>2021-06-08T10:56:08Z</time>
      </trkpt>
      <trkpt lat="49.20214" lon="1.75546">
        <ele>90.02</ele>
        <time>2021-06-08T10:56:38Z</time>
      </trkpt>
      <trkpt lat="49.20221" lon="1.75542">
        <ele>89.54</ele>
        <time>2021-06-08T10:57:03Z</time>
      </trkpt>
      <trkpt lat="49.20225" lon="1.75532">
        <ele>90.02</ele>
        <time>2021-06-08T10:57:28Z</time>
      </trkpt>
      <trkpt lat="49.20227" lon="1.75533">
        <ele>90.5</ele>
        <time>2021-06-08T10:57:34Z</time>
      </trkpt>
      <trkpt lat="49.20228" lon="1.75534">
        <ele>78</ele>
        <time>2021-06-08T10:57:37Z</time>
      </trkpt>
      <trkpt lat="49.20228" lon="1.75535">
        <ele>98.67</ele>
        <time>2021-06-08T10:57:38Z</time>
      </trkpt>
      <trkpt lat="49.20227" lon="1.75538">
        <ele>93.39</ele>
        <time>2021-06-08T10:57:39Z</time>
      </trkpt>
      <trkpt lat="49.20222" lon="1.75543">
        <ele>90.02</ele>
        <time>2021-06-08T10:57:41Z</time>
      </trkpt>
      <trkpt lat="49.2021" lon="1.75546">
        <ele>90.5</ele>
        <time>2021-06-08T10:58:06Z</time>
      </trkpt>
      <trkpt lat="49.20211" lon="1.75544">
        <ele>90.5</ele>
        <time>2021-06-08T10:58:36Z</time>
      </trkpt>
      <trkpt lat="49.20212" lon="1.75546">
        <ele>90.02</ele>
        <time>2021-06-08T10:58:59Z</time>
      </trkpt>
      <trkpt lat="49.20214" lon="1.75545">
        <ele>91.46</ele>
        <time>2021-06-08T10:59:15Z</time>
      </trkpt>
      <trkpt lat="49.20214" lon="1.75555">
        <ele>91.46</ele>
        <time>2021-06-08T10:59:33Z</time>
      </trkpt>
      <trkpt lat="49.20213" lon="1.75553">
        <ele>90.98</ele>
        <time>2021-06-08T10:59:55Z</time>
      </trkpt>
      <trkpt lat="49.20213" lon="1.75556">
        <ele>91.46</ele>
        <time>2021-06-08T11:00:18Z</time>
      </trkpt>
      <trkpt lat="49.20214" lon="1.75558">
        <ele>91.46</ele>
        <time>2021-06-08T11:00:41Z</time>
      </trkpt>
      <trkpt lat="49.20217" lon="1.75566">
        <ele>90.98</ele>
        <time>2021-06-08T11:00:58Z</time>
      </trkpt>
      <trkpt lat="49.20217" lon="1.75575">
        <ele>90.98</ele>
        <time>2021-06-08T11:01:21Z</time>
      </trkpt>
      <trkpt lat="49.20216" lon="1.75583">
        <ele>91.46</ele>
        <time>2021-06-08T11:01:35Z</time>
      </trkpt>
      <trkpt lat="49.20219" lon="1.75607">
        <ele>90.98</ele>
        <time>2021-06-08T11:01:54Z</time>
      </trkpt>
      <trkpt lat="49.20218" lon="1.75627">
        <ele>91.46</ele>
        <time>2021-06-08T11:02:08Z</time>
      </trkpt>
      <trkpt lat="49.20217" lon="1.75644">
        <ele>91.46</ele>
        <time>2021-06-08T11:02:21Z</time>
      </trkpt>
      <trkpt lat="49.20217" lon="1.75662">
        <ele>90.98</ele>
        <time>2021-06-08T11:02:36Z</time>
      </trkpt>
      <trkpt lat="49.20214" lon="1.75677">
        <ele>90.5</ele>
        <time>2021-06-08T11:02:48Z</time>
      </trkpt>
      <trkpt lat="49.20209" lon="1.75689">
        <ele>90.02</ele>
        <time>2021-06-08T11:03:05Z</time>
      </trkpt>
      <trkpt lat="49.2021" lon="1.7569">
        <ele>89.54</ele>
        <time>2021-06-08T11:03:35Z</time>
      </trkpt>
      <trkpt lat="49.20213" lon="1.75722">
        <ele>89.54</ele>
        <time>2021-06-08T11:03:53Z</time>
      </trkpt>
      <trkpt lat="49.20214" lon="1.75726">
        <ele>89.54</ele>
        <time>2021-06-08T11:04:12Z</time>
      </trkpt>
      <trkpt lat="49.20213" lon="1.75762">
        <ele>89.06</ele>
        <time>2021-06-08T11:04:31Z</time>
      </trkpt>
      <trkpt lat="49.20212" lon="1.75793">
        <ele>89.06</ele>
        <time>2021-06-08T11:04:48Z</time>
      </trkpt>
      <trkpt lat="49.20211" lon="1.75823">
        <ele>88.58</ele>
        <time>2021-06-08T11:05:07Z</time>
      </trkpt>
      <trkpt lat="49.2021" lon="1.7583">
        <ele>88.1</ele>
        <time>2021-06-08T11:05:11Z</time>
      </trkpt>
      <trkpt lat="49.20208" lon="1.75862">
        <ele>88.58</ele>
        <time>2021-06-08T11:05:32Z</time>
      </trkpt>
      <trkpt lat="49.20208" lon="1.75891">
        <ele>88.58</ele>
        <time>2021-06-08T11:05:52Z</time>
      </trkpt>
      <trkpt lat="49.20206" lon="1.75921">
        <ele>89.06</ele>
        <time>2021-06-08T11:06:11Z</time>
      </trkpt>
      <trkpt lat="49.20206" lon="1.75942">
        <ele>89.06</ele>
        <time>2021-06-08T11:06:23Z</time>
      </trkpt>
      <trkpt lat="49.20206" lon="1.75974">
        <ele>89.54</ele>
        <time>2021-06-08T11:06:41Z</time>
      </trkpt>
      <trkpt lat="49.20205" lon="1.75995">
        <ele>89.54</ele>
        <time>2021-06-08T11:06:56Z</time>
      </trkpt>
      <trkpt lat="49.20206" lon="1.76016">
        <ele>90.98</ele>
        <time>2021-06-08T11:07:09Z</time>
      </trkpt>
      <trkpt lat="49.20206" lon="1.76035">
        <ele>90.98</ele>
        <time>2021-06-08T11:07:25Z</time>
      </trkpt>
      <trkpt lat="49.20209" lon="1.76043">
        <ele>91.46</ele>
        <time>2021-06-08T11:07:37Z</time>
      </trkpt>
      <trkpt lat="49.20213" lon="1.76064">
        <ele>92.9</ele>
        <time>2021-06-08T11:07:51Z</time>
      </trkpt>
      <trkpt lat="49.20218" lon="1.76083">
        <ele>93.39</ele>
        <time>2021-06-08T11:08:03Z</time>
      </trkpt>
      <trkpt lat="49.20219" lon="1.76119">
        <ele>95.31</ele>
        <time>2021-06-08T11:08:22Z</time>
      </trkpt>
      <trkpt lat="49.20217" lon="1.76151">
        <ele>97.23</ele>
        <time>2021-06-08T11:08:40Z</time>
      </trkpt>
      <trkpt lat="49.20217" lon="1.7618">
        <ele>97.71</ele>
        <time>2021-06-08T11:08:56Z</time>
      </trkpt>
      <trkpt lat="49.20214" lon="1.76201">
        <ele>99.63</ele>
        <time>2021-06-08T11:09:15Z</time>
      </trkpt>
      <trkpt lat="49.20214" lon="1.76205">
        <ele>100.11</ele>
        <time>2021-06-08T11:09:20Z</time>
      </trkpt>
      <trkpt lat="49.20208" lon="1.76232">
        <ele>101.56</ele>
        <time>2021-06-08T11:09:36Z</time>
      </trkpt>
      <trkpt lat="49.20206" lon="1.76258">
        <ele>103.48</ele>
        <time>2021-06-08T11:09:53Z</time>
      </trkpt>
      <trkpt lat="49.20211" lon="1.76281">
        <ele>104.92</ele>
        <time>2021-06-08T11:10:10Z</time>
      </trkpt>
      <trkpt lat="49.20221" lon="1.76297">
        <ele>107.32</ele>
        <time>2021-06-08T11:10:27Z</time>
      </trkpt>
      <trkpt lat="49.20233" lon="1.76314">
        <ele>110.21</ele>
        <time>2021-06-08T11:10:47Z</time>
      </trkpt>
      <trkpt lat="49.20242" lon="1.7633">
        <ele>112.61</ele>
        <time>2021-06-08T11:11:03Z</time>
      </trkpt>
      <trkpt lat="49.20255" lon="1.76348">
        <ele>114.53</ele>
        <time>2021-06-08T11:11:19Z</time>
      </trkpt>
      <trkpt lat="49.20265" lon="1.76361">
        <ele>116.94</ele>
        <time>2021-06-08T11:11:36Z</time>
      </trkpt>
      <trkpt lat="49.20276" lon="1.76377">
        <ele>118.38</ele>
        <time>2021-06-08T11:11:54Z</time>
      </trkpt>
      <trkpt lat="49.20286" lon="1.76396">
        <ele>120.78</ele>
        <time>2021-06-08T11:12:12Z</time>
      </trkpt>
      <trkpt lat="49.20303" lon="1.76417">
        <ele>123.19</ele>
        <time>2021-06-08T11:12:32Z</time>
      </trkpt>
      <trkpt lat="49.20316" lon="1.76439">
        <ele>124.63</ele>
        <time>2021-06-08T11:12:51Z</time>
      </trkpt>
      <trkpt lat="49.20327" lon="1.76451">
        <ele>126.55</ele>
        <time>2021-06-08T11:13:07Z</time>
      </trkpt>
      <trkpt lat="49.20336" lon="1.76456">
        <ele>126.55</ele>
        <time>2021-06-08T11:13:21Z</time>
      </trkpt>
      <trkpt lat="49.2034" lon="1.76458">
        <ele>126.55</ele>
        <time>2021-06-08T11:13:34Z</time>
      </trkpt>
      <trkpt lat="49.20359" lon="1.7647">
        <ele>127.99</ele>
        <time>2021-06-08T11:13:50Z</time>
      </trkpt>
      <trkpt lat="49.20363" lon="1.7647">
        <ele>127.51</ele>
        <time>2021-06-08T11:14:04Z</time>
      </trkpt>
      <trkpt lat="49.20363" lon="1.76468">
        <ele>127.99</ele>
        <time>2021-06-08T11:14:22Z</time>
      </trkpt>
      <trkpt lat="49.2038" lon="1.7649">
        <ele>128.47</ele>
        <time>2021-06-08T11:14:39Z</time>
      </trkpt>
      <trkpt lat="49.2039" lon="1.76499">
        <ele>128.95</ele>
        <time>2021-06-08T11:14:54Z</time>
      </trkpt>
      <trkpt lat="49.20406" lon="1.76501">
        <ele>129.43</ele>
        <time>2021-06-08T11:15:10Z</time>
      </trkpt>
      <trkpt lat="49.20405" lon="1.76503">
        <ele>129.92</ele>
        <time>2021-06-08T11:15:47Z</time>
      </trkpt>
      <trkpt lat="49.20406" lon="1.76508">
        <ele>129.43</ele>
        <time>2021-06-08T11:16:07Z</time>
      </trkpt>
      <trkpt lat="49.20404" lon="1.76511">
        <ele>128.95</ele>
        <time>2021-06-08T11:16:38Z</time>
      </trkpt>
      <trkpt lat="49.20406" lon="1.7651">
        <ele>129.43</ele>
        <time>2021-06-08T11:17:10Z</time>
      </trkpt>
      <trkpt lat="49.20403" lon="1.76507">
        <ele>129.92</ele>
        <time>2021-06-08T11:17:36Z</time>
      </trkpt>
      <trkpt lat="49.20401" lon="1.76505">
        <ele>129.43</ele>
        <time>2021-06-08T11:17:59Z</time>
      </trkpt>
      <trkpt lat="49.20401" lon="1.76507">
        <ele>129.43</ele>
        <time>2021-06-08T11:18:24Z</time>
      </trkpt>
      <trkpt lat="49.2041" lon="1.76508">
        <ele>130.4</ele>
        <time>2021-06-08T11:18:39Z</time>
      </trkpt>
      <trkpt lat="49.20411" lon="1.76509">
        <ele>129.92</ele>
        <time>2021-06-08T11:19:02Z</time>
      </trkpt>
      <trkpt lat="49.20408" lon="1.76513">
        <ele>130.4</ele>
        <time>2021-06-08T11:19:26Z</time>
      </trkpt>
      <trkpt lat="49.20421" lon="1.76525">
        <ele>130.4</ele>
        <time>2021-06-08T11:19:40Z</time>
      </trkpt>
      <trkpt lat="49.20425" lon="1.76529">
        <ele>130.4</ele>
        <time>2021-06-08T11:19:44Z</time>
      </trkpt>
      <trkpt lat="49.20443" lon="1.7654">
        <ele>130.88</ele>
        <time>2021-06-08T11:20:00Z</time>
      </trkpt>
      <trkpt lat="49.20461" lon="1.76556">
        <ele>130.88</ele>
        <time>2021-06-08T11:20:17Z</time>
      </trkpt>
      <trkpt lat="49.20485" lon="1.76569">
        <ele>130.88</ele>
        <time>2021-06-08T11:20:37Z</time>
      </trkpt>
      <trkpt lat="49.20496" lon="1.76577">
        <ele>130.88</ele>
        <time>2021-06-08T11:20:47Z</time>
      </trkpt>
      <trkpt lat="49.20514" lon="1.76593">
        <ele>131.84</ele>
        <time>2021-06-08T11:21:05Z</time>
      </trkpt>
      <trkpt lat="49.20534" lon="1.76612">
        <ele>132.32</ele>
        <time>2021-06-08T11:21:24Z</time>
      </trkpt>
      <trkpt lat="49.2055" lon="1.76627">
        <ele>132.32</ele>
        <time>2021-06-08T11:21:39Z</time>
      </trkpt>
      <trkpt lat="49.20567" lon="1.76639">
        <ele>132.32</ele>
        <time>2021-06-08T11:21:56Z</time>
      </trkpt>
      <trkpt lat="49.20596" lon="1.76642">
        <ele>132.32</ele>
        <time>2021-06-08T11:22:15Z</time>
      </trkpt>
      <trkpt lat="49.20617" lon="1.76644">
        <ele>131.84</ele>
        <time>2021-06-08T11:22:32Z</time>
      </trkpt>
      <trkpt lat="49.20636" lon="1.76656">
        <ele>131.84</ele>
        <time>2021-06-08T11:22:52Z</time>
      </trkpt>
      <trkpt lat="49.20651" lon="1.76667">
        <ele>131.36</ele>
        <time>2021-06-08T11:23:08Z</time>
      </trkpt>
      <trkpt lat="49.20666" lon="1.7668">
        <ele>131.84</ele>
        <time>2021-06-08T11:23:26Z</time>
      </trkpt>
      <trkpt lat="49.20682" lon="1.76693">
        <ele>131.84</ele>
        <time>2021-06-08T11:23:43Z</time>
      </trkpt>
      <trkpt lat="49.20698" lon="1.76704">
        <ele>131.84</ele>
        <time>2021-06-08T11:24:00Z</time>
      </trkpt>
      <trkpt lat="49.20712" lon="1.76717">
        <ele>132.8</ele>
        <time>2021-06-08T11:24:16Z</time>
      </trkpt>
      <trkpt lat="49.2072" lon="1.76746">
        <ele>134.24</ele>
        <time>2021-06-08T11:24:34Z</time>
      </trkpt>
      <trkpt lat="49.20724" lon="1.76766">
        <ele>134.24</ele>
        <time>2021-06-08T11:24:44Z</time>
      </trkpt>
      <trkpt lat="49.20732" lon="1.76791">
        <ele>134.24</ele>
        <time>2021-06-08T11:25:00Z</time>
      </trkpt>
      <trkpt lat="49.20738" lon="1.76813">
        <ele>135.2</ele>
        <time>2021-06-08T11:25:17Z</time>
      </trkpt>
      <trkpt lat="49.20743" lon="1.76838">
        <ele>135.68</ele>
        <time>2021-06-08T11:25:33Z</time>
      </trkpt>
      <trkpt lat="49.20752" lon="1.76863">
        <ele>136.16</ele>
        <time>2021-06-08T11:25:51Z</time>
      </trkpt>
      <trkpt lat="49.2076" lon="1.76887">
        <ele>137.13</ele>
        <time>2021-06-08T11:26:08Z</time>
      </trkpt>
      <trkpt lat="49.20768" lon="1.76911">
        <ele>138.09</ele>
        <time>2021-06-08T11:26:26Z</time>
      </trkpt>
      <trkpt lat="49.20774" lon="1.76937">
        <ele>137.61</ele>
        <time>2021-06-08T11:26:43Z</time>
      </trkpt>
      <trkpt lat="49.20774" lon="1.7694">
        <ele>138.09</ele>
        <time>2021-06-08T11:26:45Z</time>
      </trkpt>
      <trkpt lat="49.20777" lon="1.76964">
        <ele>138.09</ele>
        <time>2021-06-08T11:27:01Z</time>
      </trkpt>
      <trkpt lat="49.20786" lon="1.76991">
        <ele>138.57</ele>
        <time>2021-06-08T11:27:21Z</time>
      </trkpt>
      <trkpt lat="49.20787" lon="1.76993">
        <ele>138.57</ele>
        <time>2021-06-08T11:27:22Z</time>
      </trkpt>
      <trkpt lat="49.20803" lon="1.77015">
        <ele>139.05</ele>
        <time>2021-06-08T11:27:42Z</time>
      </trkpt>
      <trkpt lat="49.20809" lon="1.77026">
        <ele>138.57</ele>
        <time>2021-06-08T11:27:57Z</time>
      </trkpt>
      <trkpt lat="49.20818" lon="1.77042">
        <ele>139.53</ele>
        <time>2021-06-08T11:28:12Z</time>
      </trkpt>
      <trkpt lat="49.20826" lon="1.77054">
        <ele>140.01</ele>
        <time>2021-06-08T11:28:30Z</time>
      </trkpt>
      <trkpt lat="49.20825" lon="1.7706">
        <ele>139.53</ele>
        <time>2021-06-08T11:28:43Z</time>
      </trkpt>
      <trkpt lat="49.20826" lon="1.7706">
        <ele>139.53</ele>
        <time>2021-06-08T11:29:00Z</time>
      </trkpt>
      <trkpt lat="49.20829" lon="1.77056">
        <ele>140.01</ele>
        <time>2021-06-08T11:29:15Z</time>
      </trkpt>
      <trkpt lat="49.20836" lon="1.77069">
        <ele>140.01</ele>
        <time>2021-06-08T11:29:31Z</time>
      </trkpt>
      <trkpt lat="49.20849" lon="1.77087">
        <ele>140.49</ele>
        <time>2021-06-08T11:29:49Z</time>
      </trkpt>
      <trkpt lat="49.20853" lon="1.77094">
        <ele>140.49</ele>
        <time>2021-06-08T11:30:04Z</time>
      </trkpt>
      <trkpt lat="49.20862" lon="1.77105">
        <ele>140.49</ele>
        <time>2021-06-08T11:30:20Z</time>
      </trkpt>
      <trkpt lat="49.20873" lon="1.77117">
        <ele>140.97</ele>
        <time>2021-06-08T11:30:35Z</time>
      </trkpt>
      <trkpt lat="49.20875" lon="1.77121">
        <ele>140.97</ele>
        <time>2021-06-08T11:30:38Z</time>
      </trkpt>
      <trkpt lat="49.20875" lon="1.77127">
        <ele>140.97</ele>
        <time>2021-06-08T11:30:43Z</time>
      </trkpt>
      <trkpt lat="49.20869" lon="1.77134">
        <ele>141.45</ele>
        <time>2021-06-08T11:30:51Z</time>
      </trkpt>
      <trkpt lat="49.20867" lon="1.77135">
        <ele>141.93</ele>
        <time>2021-06-08T11:30:59Z</time>
      </trkpt>
      <trkpt lat="49.20863" lon="1.77138">
        <ele>140.97</ele>
        <time>2021-06-08T11:31:03Z</time>
      </trkpt>
      <trkpt lat="49.20858" lon="1.77142">
        <ele>140.97</ele>
        <time>2021-06-08T11:31:17Z</time>
      </trkpt>
      <trkpt lat="49.20858" lon="1.77142">
        <ele>140.97</ele>
        <time>2021-06-08T11:31:21Z</time>
      </trkpt>
      <trkpt lat="49.20856" lon="1.77146">
        <ele>141.93</ele>
        <time>2021-06-08T11:31:24Z</time>
      </trkpt>
      <trkpt lat="49.2086" lon="1.77168">
        <ele>141.45</ele>
        <time>2021-06-08T11:31:41Z</time>
      </trkpt>
      <trkpt lat="49.20863" lon="1.77171">
        <ele>142.41</ele>
        <time>2021-06-08T11:31:56Z</time>
      </trkpt>
      <trkpt lat="49.20873" lon="1.772">
        <ele>142.89</ele>
        <time>2021-06-08T11:32:16Z</time>
      </trkpt>
      <trkpt lat="49.20882" lon="1.77223">
        <ele>142.89</ele>
        <time>2021-06-08T11:32:33Z</time>
      </trkpt>
      <trkpt lat="49.20893" lon="1.77246">
        <ele>143.37</ele>
        <time>2021-06-08T11:32:52Z</time>
      </trkpt>
      <trkpt lat="49.20902" lon="1.77267">
        <ele>143.85</ele>
        <time>2021-06-08T11:33:07Z</time>
      </trkpt>
      <trkpt lat="49.20913" lon="1.77295">
        <ele>144.82</ele>
        <time>2021-06-08T11:33:27Z</time>
      </trkpt>
      <trkpt lat="49.20924" lon="1.77322">
        <ele>144.82</ele>
        <time>2021-06-08T11:33:45Z</time>
      </trkpt>
      <trkpt lat="49.20937" lon="1.77354">
        <ele>145.78</ele>
        <time>2021-06-08T11:34:05Z</time>
      </trkpt>
      <trkpt lat="49.2095" lon="1.77385">
        <ele>146.74</ele>
        <time>2021-06-08T11:34:25Z</time>
      </trkpt>
      <trkpt lat="49.20961" lon="1.77409">
        <ele>147.7</ele>
        <time>2021-06-08T11:34:42Z</time>
      </trkpt>
      <trkpt lat="49.20965" lon="1.77418">
        <ele>147.22</ele>
        <time>2021-06-08T11:34:49Z</time>
      </trkpt>
      <trkpt lat="49.20978" lon="1.7745">
        <ele>147.7</ele>
        <time>2021-06-08T11:35:11Z</time>
      </trkpt>
      <trkpt lat="49.20985" lon="1.77468">
        <ele>149.14</ele>
        <time>2021-06-08T11:35:31Z</time>
      </trkpt>
      <trkpt lat="49.20998" lon="1.775">
        <ele>149.14</ele>
        <time>2021-06-08T11:35:53Z</time>
      </trkpt>
      <trkpt lat="49.21011" lon="1.77532">
        <ele>150.58</ele>
        <time>2021-06-08T11:36:14Z</time>
      </trkpt>
      <trkpt lat="49.21023" lon="1.77562">
        <ele>150.58</ele>
        <time>2021-06-08T11:36:34Z</time>
      </trkpt>
      <trkpt lat="49.21034" lon="1.77588">
        <ele>151.54</ele>
        <time>2021-06-08T11:36:52Z</time>
      </trkpt>
      <trkpt lat="49.21044" lon="1.77611">
        <ele>152.03</ele>
        <time>2021-06-08T11:37:09Z</time>
      </trkpt>
      <trkpt lat="49.21056" lon="1.77638">
        <ele>153.47</ele>
        <time>2021-06-08T11:37:27Z</time>
      </trkpt>
      <trkpt lat="49.21068" lon="1.77669">
        <ele>154.43</ele>
        <time>2021-06-08T11:37:47Z</time>
      </trkpt>
      <trkpt lat="49.21079" lon="1.77696">
        <ele>155.39</ele>
        <time>2021-06-08T11:38:06Z</time>
      </trkpt>
      <trkpt lat="49.2109" lon="1.77723">
        <ele>156.35</ele>
        <time>2021-06-08T11:38:24Z</time>
      </trkpt>
      <trkpt lat="49.21101" lon="1.77756">
        <ele>157.31</ele>
        <time>2021-06-08T11:38:45Z</time>
      </trkpt>
      <trkpt lat="49.21108" lon="1.77783">
        <ele>158.27</ele>
        <time>2021-06-08T11:39:02Z</time>
      </trkpt>
      <trkpt lat="49.21116" lon="1.77813">
        <ele>159.24</ele>
        <time>2021-06-08T11:39:21Z</time>
      </trkpt>
      <trkpt lat="49.21124" lon="1.7784">
        <ele>159.72</ele>
        <time>2021-06-08T11:39:38Z</time>
      </trkpt>
      <trkpt lat="49.21133" lon="1.7787">
        <ele>161.16</ele>
        <time>2021-06-08T11:39:56Z</time>
      </trkpt>
      <trkpt lat="49.21141" lon="1.77903">
        <ele>162.6</ele>
        <time>2021-06-08T11:40:14Z</time>
      </trkpt>
      <trkpt lat="49.2115" lon="1.7794">
        <ele>164.04</ele>
        <time>2021-06-08T11:40:35Z</time>
      </trkpt>
      <trkpt lat="49.21155" lon="1.77973">
        <ele>165.48</ele>
        <time>2021-06-08T11:40:53Z</time>
      </trkpt>
      <trkpt lat="49.21159" lon="1.77995">
        <ele>166.93</ele>
        <time>2021-06-08T11:41:09Z</time>
      </trkpt>
      <trkpt lat="49.2116" lon="1.78004">
        <ele>166.45</ele>
        <time>2021-06-08T11:41:33Z</time>
      </trkpt>
      <trkpt lat="49.21157" lon="1.78035">
        <ele>167.89</ele>
        <time>2021-06-08T11:41:50Z</time>
      </trkpt>
      <trkpt lat="49.21149" lon="1.7806">
        <ele>168.85</ele>
        <time>2021-06-08T11:42:07Z</time>
      </trkpt>
      <trkpt lat="49.21141" lon="1.78087">
        <ele>170.29</ele>
        <time>2021-06-08T11:42:24Z</time>
      </trkpt>
      <trkpt lat="49.21135" lon="1.78121">
        <ele>171.73</ele>
        <time>2021-06-08T11:42:44Z</time>
      </trkpt>
      <trkpt lat="49.21129" lon="1.78149">
        <ele>172.69</ele>
        <time>2021-06-08T11:43:01Z</time>
      </trkpt>
      <trkpt lat="49.21129" lon="1.78163">
        <ele>173.17</ele>
        <time>2021-06-08T11:43:09Z</time>
      </trkpt>
      <trkpt lat="49.2114" lon="1.78188">
        <ele>174.62</ele>
        <time>2021-06-08T11:43:26Z</time>
      </trkpt>
      <trkpt lat="49.21158" lon="1.78198">
        <ele>175.58</ele>
        <time>2021-06-08T11:43:45Z</time>
      </trkpt>
      <trkpt lat="49.21181" lon="1.78193">
        <ele>177.5</ele>
        <time>2021-06-08T11:44:05Z</time>
      </trkpt>
      <trkpt lat="49.21194" lon="1.78185">
        <ele>177.98</ele>
        <time>2021-06-08T11:44:19Z</time>
      </trkpt>
      <trkpt lat="49.21209" lon="1.78175">
        <ele>179.42</ele>
        <time>2021-06-08T11:44:34Z</time>
      </trkpt>
      <trkpt lat="49.21224" lon="1.78166">
        <ele>180.87</ele>
        <time>2021-06-08T11:44:48Z</time>
      </trkpt>
      <trkpt lat="49.2124" lon="1.78161">
        <ele>181.83</ele>
        <time>2021-06-08T11:45:05Z</time>
      </trkpt>
      <trkpt lat="49.21255" lon="1.78151">
        <ele>182.79</ele>
        <time>2021-06-08T11:45:19Z</time>
      </trkpt>
      <trkpt lat="49.21269" lon="1.78148">
        <ele>183.75</ele>
        <time>2021-06-08T11:45:33Z</time>
      </trkpt>
      <trkpt lat="49.21278" lon="1.78147">
        <ele>184.71</ele>
        <time>2021-06-08T11:45:45Z</time>
      </trkpt>
      <trkpt lat="49.21305" lon="1.78133">
        <ele>186.15</ele>
        <time>2021-06-08T11:46:03Z</time>
      </trkpt>
      <trkpt lat="49.21321" lon="1.78137">
        <ele>187.59</ele>
        <time>2021-06-08T11:46:18Z</time>
      </trkpt>
      <trkpt lat="49.2134" lon="1.78131">
        <ele>188.08</ele>
        <time>2021-06-08T11:46:32Z</time>
      </trkpt>
      <trkpt lat="49.21344" lon="1.78132">
        <ele>188.56</ele>
        <time>2021-06-08T11:46:35Z</time>
      </trkpt>
      <trkpt lat="49.21362" lon="1.78141">
        <ele>189.04</ele>
        <time>2021-06-08T11:46:49Z</time>
      </trkpt>
      <trkpt lat="49.2137" lon="1.78169">
        <ele>190.48</ele>
        <time>2021-06-08T11:47:03Z</time>
      </trkpt>
      <trkpt lat="49.21371" lon="1.78174">
        <ele>190.48</ele>
        <time>2021-06-08T11:47:05Z</time>
      </trkpt>
      <trkpt lat="49.21368" lon="1.78197">
        <ele>191.44</ele>
        <time>2021-06-08T11:47:19Z</time>
      </trkpt>
      <trkpt lat="49.21361" lon="1.78209">
        <ele>191.92</ele>
        <time>2021-06-08T11:47:28Z</time>
      </trkpt>
      <trkpt lat="49.21357" lon="1.78238">
        <ele>193.84</ele>
        <time>2021-06-08T11:47:45Z</time>
      </trkpt>
      <trkpt lat="49.21352" lon="1.78259">
        <ele>194.32</ele>
        <time>2021-06-08T11:47:58Z</time>
      </trkpt>
      <trkpt lat="49.2135" lon="1.78275">
        <ele>194.8</ele>
        <time>2021-06-08T11:48:08Z</time>
      </trkpt>
      <trkpt lat="49.21353" lon="1.78302">
        <ele>196.73</ele>
        <time>2021-06-08T11:48:23Z</time>
      </trkpt>
      <trkpt lat="49.2136" lon="1.7833">
        <ele>198.17</ele>
        <time>2021-06-08T11:48:40Z</time>
      </trkpt>
      <trkpt lat="49.21369" lon="1.78355">
        <ele>199.61</ele>
        <time>2021-06-08T11:48:56Z</time>
      </trkpt>
      <trkpt lat="49.21383" lon="1.78378">
        <ele>200.57</ele>
        <time>2021-06-08T11:49:12Z</time>
      </trkpt>
      <trkpt lat="49.21383" lon="1.78387">
        <ele>201.05</ele>
        <time>2021-06-08T11:49:17Z</time>
      </trkpt>
      <trkpt lat="49.2139" lon="1.784">
        <ele>201.53</ele>
        <time>2021-06-08T11:49:26Z</time>
      </trkpt>
      <trkpt lat="49.21399" lon="1.78415">
        <ele>202.49</ele>
        <time>2021-06-08T11:49:39Z</time>
      </trkpt>
      <trkpt lat="49.21408" lon="1.78421">
        <ele>203.94</ele>
        <time>2021-06-08T11:49:53Z</time>
      </trkpt>
      <trkpt lat="49.21409" lon="1.78418">
        <ele>203.94</ele>
        <time>2021-06-08T11:49:55Z</time>
      </trkpt>
    </trkseg>
  </trk>
</gpx>